<?xml version="1.0" encoding="UTF-8" standalone="no" ?>
<gpx xmlns="http://www.topografix.com/GPX/1/1" xmlns:xsi="http://www.w3.org/2001/XMLSchema-instance" xsi:schemaLocation="http://www.topografix.com/GPX/1/1 http://www.topografix.com/GPX/1/1/gpx.xsd" version="1.1" creator="VisuGPX - https://www.visugpx.com">
  <metadata>
    <name>Croissy sur celle</name>
    <desc><![CDATA[Walkmeter Marche 26 mai 2013 09:14:56]]></desc>
  </metadata>
  <trk>
    <name><![CDATA[Ch en S / Croissy Sur Celle]]></name>
    <trkseg>
      <trkpt lat="49.69641" lon="2.16883">
        <ele>61</ele>
        <time>2013-05-26T07:14:56Z</time>
      </trkpt>
      <trkpt lat="49.6964" lon="2.16882">
        <ele>61.3</ele>
        <time>2013-05-26T07:14:57Z</time>
      </trkpt>
      <trkpt lat="49.69641" lon="2.16875">
        <ele>62.1</ele>
        <time>2013-05-26T07:14:58Z</time>
      </trkpt>
      <trkpt lat="49.69628" lon="2.16865">
        <ele>68</ele>
        <time>2013-05-26T07:15:09Z</time>
      </trkpt>
      <trkpt lat="49.69616" lon="2.16853">
        <ele>71.4</ele>
        <time>2013-05-26T07:15:21Z</time>
      </trkpt>
      <trkpt lat="49.69603" lon="2.16843">
        <ele>73.6</ele>
        <time>2013-05-26T07:15:32Z</time>
      </trkpt>
      <trkpt lat="49.69591" lon="2.16833">
        <ele>75.1</ele>
        <time>2013-05-26T07:15:43Z</time>
      </trkpt>
      <trkpt lat="49.69578" lon="2.16826">
        <ele>76.9</ele>
        <time>2013-05-26T07:15:54Z</time>
      </trkpt>
      <trkpt lat="49.69564" lon="2.16828">
        <ele>77.7</ele>
        <time>2013-05-26T07:16:04Z</time>
      </trkpt>
      <trkpt lat="49.69555" lon="2.16843">
        <ele>77.3</ele>
        <time>2013-05-26T07:16:11Z</time>
      </trkpt>
      <trkpt lat="49.6955" lon="2.16864">
        <ele>76.8</ele>
        <time>2013-05-26T07:16:20Z</time>
      </trkpt>
      <trkpt lat="49.69552" lon="2.16886">
        <ele>76.3</ele>
        <time>2013-05-26T07:16:30Z</time>
      </trkpt>
      <trkpt lat="49.69554" lon="2.1691">
        <ele>75.5</ele>
        <time>2013-05-26T07:16:47Z</time>
      </trkpt>
      <trkpt lat="49.69551" lon="2.1693">
        <ele>75.1</ele>
        <time>2013-05-26T07:16:55Z</time>
      </trkpt>
      <trkpt lat="49.69552" lon="2.16951">
        <ele>74.8</ele>
        <time>2013-05-26T07:17:02Z</time>
      </trkpt>
      <trkpt lat="49.69546" lon="2.16971">
        <ele>74.3</ele>
        <time>2013-05-26T07:17:12Z</time>
      </trkpt>
      <trkpt lat="49.69553" lon="2.1699">
        <ele>73.7</ele>
        <time>2013-05-26T07:17:23Z</time>
      </trkpt>
      <trkpt lat="49.69557" lon="2.17016">
        <ele>73.4</ele>
        <time>2013-05-26T07:17:31Z</time>
      </trkpt>
      <trkpt lat="49.69546" lon="2.17032">
        <ele>72.9</ele>
        <time>2013-05-26T07:17:40Z</time>
      </trkpt>
      <trkpt lat="49.6955" lon="2.17047">
        <ele>72.3</ele>
        <time>2013-05-26T07:17:52Z</time>
      </trkpt>
      <trkpt lat="49.69542" lon="2.17067">
        <ele>72.7</ele>
        <time>2013-05-26T07:18:02Z</time>
      </trkpt>
      <trkpt lat="49.69537" lon="2.1709">
        <ele>75.1</ele>
        <time>2013-05-26T07:18:13Z</time>
      </trkpt>
      <trkpt lat="49.69525" lon="2.171">
        <ele>78.9</ele>
        <time>2013-05-26T07:18:31Z</time>
      </trkpt>
      <trkpt lat="49.69514" lon="2.17114">
        <ele>76.7</ele>
        <time>2013-05-26T07:18:34Z</time>
      </trkpt>
      <trkpt lat="49.69506" lon="2.17132">
        <ele>74.5</ele>
        <time>2013-05-26T07:18:44Z</time>
      </trkpt>
      <trkpt lat="49.69505" lon="2.17155">
        <ele>75.1</ele>
        <time>2013-05-26T07:18:54Z</time>
      </trkpt>
      <trkpt lat="49.69501" lon="2.17177">
        <ele>75.6</ele>
        <time>2013-05-26T07:19:03Z</time>
      </trkpt>
      <trkpt lat="49.69501" lon="2.17184">
        <ele>75.8</ele>
        <time>2013-05-26T07:19:06Z</time>
      </trkpt>
      <trkpt lat="49.69487" lon="2.17188">
        <ele>76.4</ele>
        <time>2013-05-26T07:19:16Z</time>
      </trkpt>
      <trkpt lat="49.69473" lon="2.17183">
        <ele>76.8</ele>
        <time>2013-05-26T07:19:24Z</time>
      </trkpt>
      <trkpt lat="49.69459" lon="2.17192">
        <ele>75.3</ele>
        <time>2013-05-26T07:19:37Z</time>
      </trkpt>
      <trkpt lat="49.69453" lon="2.17211">
        <ele>72.1</ele>
        <time>2013-05-26T07:19:52Z</time>
      </trkpt>
      <trkpt lat="49.6944" lon="2.1722">
        <ele>73.7</ele>
        <time>2013-05-26T07:20:11Z</time>
      </trkpt>
      <trkpt lat="49.69431" lon="2.17238">
        <ele>75.8</ele>
        <time>2013-05-26T07:20:23Z</time>
      </trkpt>
      <trkpt lat="49.69425" lon="2.17259">
        <ele>83.1</ele>
        <time>2013-05-26T07:20:33Z</time>
      </trkpt>
      <trkpt lat="49.6942" lon="2.1728">
        <ele>85.3</ele>
        <time>2013-05-26T07:20:39Z</time>
      </trkpt>
      <trkpt lat="49.69415" lon="2.17273">
        <ele>88.2</ele>
        <time>2013-05-26T07:20:47Z</time>
      </trkpt>
      <trkpt lat="49.69405" lon="2.1729">
        <ele>91.7</ele>
        <time>2013-05-26T07:21:06Z</time>
      </trkpt>
      <trkpt lat="49.69396" lon="2.17306">
        <ele>93.3</ele>
        <time>2013-05-26T07:21:19Z</time>
      </trkpt>
      <trkpt lat="49.6939" lon="2.17325">
        <ele>92</ele>
        <time>2013-05-26T07:21:32Z</time>
      </trkpt>
      <trkpt lat="49.69381" lon="2.17344">
        <ele>92.6</ele>
        <time>2013-05-26T07:21:42Z</time>
      </trkpt>
      <trkpt lat="49.69372" lon="2.17362">
        <ele>93.8</ele>
        <time>2013-05-26T07:21:53Z</time>
      </trkpt>
      <trkpt lat="49.69363" lon="2.1738">
        <ele>95.3</ele>
        <time>2013-05-26T07:22:09Z</time>
      </trkpt>
      <trkpt lat="49.6936" lon="2.17402">
        <ele>95.8</ele>
        <time>2013-05-26T07:22:18Z</time>
      </trkpt>
      <trkpt lat="49.69354" lon="2.17408">
        <ele>96.1</ele>
        <time>2013-05-26T07:22:22Z</time>
      </trkpt>
      <trkpt lat="49.69345" lon="2.17391">
        <ele>96.6</ele>
        <time>2013-05-26T07:22:31Z</time>
      </trkpt>
      <trkpt lat="49.69333" lon="2.17381">
        <ele>97.2</ele>
        <time>2013-05-26T07:22:41Z</time>
      </trkpt>
      <trkpt lat="49.6932" lon="2.17389">
        <ele>97.8</ele>
        <time>2013-05-26T07:22:50Z</time>
      </trkpt>
      <trkpt lat="49.69311" lon="2.17394">
        <ele>98.2</ele>
        <time>2013-05-26T07:22:56Z</time>
      </trkpt>
      <trkpt lat="49.69299" lon="2.17405">
        <ele>99.3</ele>
        <time>2013-05-26T07:23:08Z</time>
      </trkpt>
      <trkpt lat="49.69285" lon="2.17405">
        <ele>100.3</ele>
        <time>2013-05-26T07:23:19Z</time>
      </trkpt>
      <trkpt lat="49.69275" lon="2.17408">
        <ele>101.2</ele>
        <time>2013-05-26T07:23:29Z</time>
      </trkpt>
      <trkpt lat="49.69278" lon="2.17417">
        <ele>101.6</ele>
        <time>2013-05-26T07:23:34Z</time>
      </trkpt>
      <trkpt lat="49.69271" lon="2.1741">
        <ele>102</ele>
        <time>2013-05-26T07:23:38Z</time>
      </trkpt>
      <trkpt lat="49.69257" lon="2.17424">
        <ele>95</ele>
        <time>2013-05-26T07:23:44Z</time>
      </trkpt>
      <trkpt lat="49.69248" lon="2.17441">
        <ele>95.5</ele>
        <time>2013-05-26T07:23:50Z</time>
      </trkpt>
      <trkpt lat="49.69247" lon="2.17462">
        <ele>96.1</ele>
        <time>2013-05-26T07:23:58Z</time>
      </trkpt>
      <trkpt lat="49.69259" lon="2.17473">
        <ele>97</ele>
        <time>2013-05-26T07:24:10Z</time>
      </trkpt>
      <trkpt lat="49.69269" lon="2.17489">
        <ele>97.8</ele>
        <time>2013-05-26T07:24:21Z</time>
      </trkpt>
      <trkpt lat="49.69281" lon="2.17503">
        <ele>98.5</ele>
        <time>2013-05-26T07:24:30Z</time>
      </trkpt>
      <trkpt lat="49.69292" lon="2.17518">
        <ele>99.3</ele>
        <time>2013-05-26T07:24:41Z</time>
      </trkpt>
      <trkpt lat="49.693" lon="2.17536">
        <ele>100</ele>
        <time>2013-05-26T07:24:50Z</time>
      </trkpt>
      <trkpt lat="49.69309" lon="2.17554">
        <ele>104.6</ele>
        <time>2013-05-26T07:25:01Z</time>
      </trkpt>
      <trkpt lat="49.69319" lon="2.17567">
        <ele>105.4</ele>
        <time>2013-05-26T07:25:12Z</time>
      </trkpt>
      <trkpt lat="49.6932" lon="2.17588">
        <ele>106.4</ele>
        <time>2013-05-26T07:25:37Z</time>
      </trkpt>
      <trkpt lat="49.69316" lon="2.17609">
        <ele>106.7</ele>
        <time>2013-05-26T07:25:46Z</time>
      </trkpt>
      <trkpt lat="49.69315" lon="2.1763">
        <ele>106.6</ele>
        <time>2013-05-26T07:25:57Z</time>
      </trkpt>
      <trkpt lat="49.69309" lon="2.1765">
        <ele>105.1</ele>
        <time>2013-05-26T07:26:11Z</time>
      </trkpt>
      <trkpt lat="49.69302" lon="2.17671">
        <ele>104.1</ele>
        <time>2013-05-26T07:26:23Z</time>
      </trkpt>
      <trkpt lat="49.69299" lon="2.17692">
        <ele>104.7</ele>
        <time>2013-05-26T07:26:33Z</time>
      </trkpt>
      <trkpt lat="49.69292" lon="2.17712">
        <ele>105.4</ele>
        <time>2013-05-26T07:26:45Z</time>
      </trkpt>
      <trkpt lat="49.69286" lon="2.1773">
        <ele>106</ele>
        <time>2013-05-26T07:26:55Z</time>
      </trkpt>
      <trkpt lat="49.69276" lon="2.17746">
        <ele>106.6</ele>
        <time>2013-05-26T07:27:06Z</time>
      </trkpt>
      <trkpt lat="49.69271" lon="2.17768">
        <ele>107.2</ele>
        <time>2013-05-26T07:27:16Z</time>
      </trkpt>
      <trkpt lat="49.69265" lon="2.17787">
        <ele>107.6</ele>
        <time>2013-05-26T07:27:23Z</time>
      </trkpt>
      <trkpt lat="49.69256" lon="2.17804">
        <ele>108.2</ele>
        <time>2013-05-26T07:27:34Z</time>
      </trkpt>
      <trkpt lat="49.69249" lon="2.17824">
        <ele>108.9</ele>
        <time>2013-05-26T07:27:47Z</time>
      </trkpt>
      <trkpt lat="49.69242" lon="2.17844">
        <ele>109.7</ele>
        <time>2013-05-26T07:27:56Z</time>
      </trkpt>
      <trkpt lat="49.69236" lon="2.17863">
        <ele>110.6</ele>
        <time>2013-05-26T07:28:06Z</time>
      </trkpt>
      <trkpt lat="49.69229" lon="2.17881">
        <ele>110.2</ele>
        <time>2013-05-26T07:28:16Z</time>
      </trkpt>
      <trkpt lat="49.69221" lon="2.17898">
        <ele>112.3</ele>
        <time>2013-05-26T07:28:29Z</time>
      </trkpt>
      <trkpt lat="49.69215" lon="2.17918">
        <ele>112.2</ele>
        <time>2013-05-26T07:28:41Z</time>
      </trkpt>
      <trkpt lat="49.69207" lon="2.17936">
        <ele>112.3</ele>
        <time>2013-05-26T07:28:50Z</time>
      </trkpt>
      <trkpt lat="49.69202" lon="2.17955">
        <ele>112.9</ele>
        <time>2013-05-26T07:29:01Z</time>
      </trkpt>
      <trkpt lat="49.69197" lon="2.17976">
        <ele>113.5</ele>
        <time>2013-05-26T07:29:14Z</time>
      </trkpt>
      <trkpt lat="49.6919" lon="2.17996">
        <ele>114.1</ele>
        <time>2013-05-26T07:29:24Z</time>
      </trkpt>
      <trkpt lat="49.69184" lon="2.18017">
        <ele>114.7</ele>
        <time>2013-05-26T07:29:36Z</time>
      </trkpt>
      <trkpt lat="49.69178" lon="2.18037">
        <ele>115.2</ele>
        <time>2013-05-26T07:29:46Z</time>
      </trkpt>
      <trkpt lat="49.69173" lon="2.18056">
        <ele>115.7</ele>
        <time>2013-05-26T07:29:57Z</time>
      </trkpt>
      <trkpt lat="49.69166" lon="2.18077">
        <ele>116.7</ele>
        <time>2013-05-26T07:30:06Z</time>
      </trkpt>
      <trkpt lat="49.69159" lon="2.18095">
        <ele>118.5</ele>
        <time>2013-05-26T07:30:17Z</time>
      </trkpt>
      <trkpt lat="49.69151" lon="2.18114">
        <ele>118.6</ele>
        <time>2013-05-26T07:30:27Z</time>
      </trkpt>
      <trkpt lat="49.69143" lon="2.18131">
        <ele>118.2</ele>
        <time>2013-05-26T07:30:38Z</time>
      </trkpt>
      <trkpt lat="49.69134" lon="2.18148">
        <ele>117.7</ele>
        <time>2013-05-26T07:30:49Z</time>
      </trkpt>
      <trkpt lat="49.69128" lon="2.18168">
        <ele>117.2</ele>
        <time>2013-05-26T07:31:00Z</time>
      </trkpt>
      <trkpt lat="49.69121" lon="2.18187">
        <ele>116.7</ele>
        <time>2013-05-26T07:31:11Z</time>
      </trkpt>
      <trkpt lat="49.69112" lon="2.18204">
        <ele>116.2</ele>
        <time>2013-05-26T07:31:22Z</time>
      </trkpt>
      <trkpt lat="49.69103" lon="2.18222">
        <ele>115.7</ele>
        <time>2013-05-26T07:31:34Z</time>
      </trkpt>
      <trkpt lat="49.69094" lon="2.18239">
        <ele>115.1</ele>
        <time>2013-05-26T07:31:47Z</time>
      </trkpt>
      <trkpt lat="49.6908" lon="2.18246">
        <ele>114.5</ele>
        <time>2013-05-26T07:32:00Z</time>
      </trkpt>
      <trkpt lat="49.69072" lon="2.18263">
        <ele>114.1</ele>
        <time>2013-05-26T07:32:10Z</time>
      </trkpt>
      <trkpt lat="49.69063" lon="2.1828">
        <ele>115.1</ele>
        <time>2013-05-26T07:32:18Z</time>
      </trkpt>
      <trkpt lat="49.69056" lon="2.18298">
        <ele>117.6</ele>
        <time>2013-05-26T07:32:32Z</time>
      </trkpt>
      <trkpt lat="49.69055" lon="2.18319">
        <ele>119</ele>
        <time>2013-05-26T07:32:43Z</time>
      </trkpt>
      <trkpt lat="49.69051" lon="2.1834">
        <ele>119.9</ele>
        <time>2013-05-26T07:32:52Z</time>
      </trkpt>
      <trkpt lat="49.6904" lon="2.18352">
        <ele>120.9</ele>
        <time>2013-05-26T07:33:01Z</time>
      </trkpt>
      <trkpt lat="49.6903" lon="2.18367">
        <ele>121.8</ele>
        <time>2013-05-26T07:33:11Z</time>
      </trkpt>
      <trkpt lat="49.69028" lon="2.18389">
        <ele>121.2</ele>
        <time>2013-05-26T07:33:26Z</time>
      </trkpt>
      <trkpt lat="49.69018" lon="2.18406">
        <ele>121.4</ele>
        <time>2013-05-26T07:33:38Z</time>
      </trkpt>
      <trkpt lat="49.69012" lon="2.18428">
        <ele>122</ele>
        <time>2013-05-26T07:33:52Z</time>
      </trkpt>
      <trkpt lat="49.69013" lon="2.1845">
        <ele>122.3</ele>
        <time>2013-05-26T07:34:00Z</time>
      </trkpt>
      <trkpt lat="49.69013" lon="2.18461">
        <ele>122.5</ele>
        <time>2013-05-26T07:34:04Z</time>
      </trkpt>
      <trkpt lat="49.68998" lon="2.18462">
        <ele>122.8</ele>
        <time>2013-05-26T07:34:12Z</time>
      </trkpt>
      <trkpt lat="49.68987" lon="2.18473">
        <ele>123.2</ele>
        <time>2013-05-26T07:34:22Z</time>
      </trkpt>
      <trkpt lat="49.68979" lon="2.18491">
        <ele>123.7</ele>
        <time>2013-05-26T07:34:33Z</time>
      </trkpt>
      <trkpt lat="49.6897" lon="2.18507">
        <ele>123.7</ele>
        <time>2013-05-26T07:34:42Z</time>
      </trkpt>
      <trkpt lat="49.6896" lon="2.18522">
        <ele>120.2</ele>
        <time>2013-05-26T07:34:54Z</time>
      </trkpt>
      <trkpt lat="49.68952" lon="2.1854">
        <ele>118.3</ele>
        <time>2013-05-26T07:35:02Z</time>
      </trkpt>
      <trkpt lat="49.68943" lon="2.18557">
        <ele>115</ele>
        <time>2013-05-26T07:35:20Z</time>
      </trkpt>
      <trkpt lat="49.68936" lon="2.18575">
        <ele>115.3</ele>
        <time>2013-05-26T07:35:30Z</time>
      </trkpt>
      <trkpt lat="49.68928" lon="2.18592">
        <ele>113</ele>
        <time>2013-05-26T07:35:41Z</time>
      </trkpt>
      <trkpt lat="49.68918" lon="2.18607">
        <ele>110.2</ele>
        <time>2013-05-26T07:35:52Z</time>
      </trkpt>
      <trkpt lat="49.68907" lon="2.18622">
        <ele>106</ele>
        <time>2013-05-26T07:36:04Z</time>
      </trkpt>
      <trkpt lat="49.68894" lon="2.18632">
        <ele>104.4</ele>
        <time>2013-05-26T07:36:21Z</time>
      </trkpt>
      <trkpt lat="49.68887" lon="2.1865">
        <ele>103.4</ele>
        <time>2013-05-26T07:36:32Z</time>
      </trkpt>
      <trkpt lat="49.68876" lon="2.18667">
        <ele>103.3</ele>
        <time>2013-05-26T07:36:41Z</time>
      </trkpt>
      <trkpt lat="49.68865" lon="2.18681">
        <ele>103.8</ele>
        <time>2013-05-26T07:36:51Z</time>
      </trkpt>
      <trkpt lat="49.68853" lon="2.18696">
        <ele>101.5</ele>
        <time>2013-05-26T07:37:01Z</time>
      </trkpt>
      <trkpt lat="49.6884" lon="2.18702">
        <ele>100.2</ele>
        <time>2013-05-26T07:37:09Z</time>
      </trkpt>
      <trkpt lat="49.68833" lon="2.18723">
        <ele>101.2</ele>
        <time>2013-05-26T07:37:27Z</time>
      </trkpt>
      <trkpt lat="49.68823" lon="2.18738">
        <ele>101.6</ele>
        <time>2013-05-26T07:37:35Z</time>
      </trkpt>
      <trkpt lat="49.68815" lon="2.18756">
        <ele>102</ele>
        <time>2013-05-26T07:37:42Z</time>
      </trkpt>
      <trkpt lat="49.68807" lon="2.18776">
        <ele>102.5</ele>
        <time>2013-05-26T07:37:51Z</time>
      </trkpt>
      <trkpt lat="49.68796" lon="2.18791">
        <ele>102.8</ele>
        <time>2013-05-26T07:37:57Z</time>
      </trkpt>
      <trkpt lat="49.68785" lon="2.18804">
        <ele>102.9</ele>
        <time>2013-05-26T07:38:03Z</time>
      </trkpt>
      <trkpt lat="49.68774" lon="2.18817">
        <ele>102.7</ele>
        <time>2013-05-26T07:38:10Z</time>
      </trkpt>
      <trkpt lat="49.68766" lon="2.18835">
        <ele>102.3</ele>
        <time>2013-05-26T07:38:20Z</time>
      </trkpt>
      <trkpt lat="49.68764" lon="2.18856">
        <ele>101.8</ele>
        <time>2013-05-26T07:38:35Z</time>
      </trkpt>
      <trkpt lat="49.68758" lon="2.18877">
        <ele>101.6</ele>
        <time>2013-05-26T07:38:42Z</time>
      </trkpt>
      <trkpt lat="49.68749" lon="2.18892">
        <ele>101.3</ele>
        <time>2013-05-26T07:38:52Z</time>
      </trkpt>
      <trkpt lat="49.68743" lon="2.18913">
        <ele>100.9</ele>
        <time>2013-05-26T07:39:05Z</time>
      </trkpt>
      <trkpt lat="49.68742" lon="2.18935">
        <ele>100.5</ele>
        <time>2013-05-26T07:39:15Z</time>
      </trkpt>
      <trkpt lat="49.6873" lon="2.18948">
        <ele>100.1</ele>
        <time>2013-05-26T07:39:27Z</time>
      </trkpt>
      <trkpt lat="49.68723" lon="2.18968">
        <ele>99.5</ele>
        <time>2013-05-26T07:39:36Z</time>
      </trkpt>
      <trkpt lat="49.68714" lon="2.18984">
        <ele>98</ele>
        <time>2013-05-26T07:39:52Z</time>
      </trkpt>
      <trkpt lat="49.68706" lon="2.19004">
        <ele>97</ele>
        <time>2013-05-26T07:40:03Z</time>
      </trkpt>
      <trkpt lat="49.68707" lon="2.19025">
        <ele>94</ele>
        <time>2013-05-26T07:40:25Z</time>
      </trkpt>
      <trkpt lat="49.68698" lon="2.19042">
        <ele>93.6</ele>
        <time>2013-05-26T07:40:34Z</time>
      </trkpt>
      <trkpt lat="49.68696" lon="2.19066">
        <ele>93</ele>
        <time>2013-05-26T07:40:40Z</time>
      </trkpt>
      <trkpt lat="49.6869" lon="2.19085">
        <ele>92.6</ele>
        <time>2013-05-26T07:40:45Z</time>
      </trkpt>
      <trkpt lat="49.6868" lon="2.19102">
        <ele>92</ele>
        <time>2013-05-26T07:40:52Z</time>
      </trkpt>
      <trkpt lat="49.68672" lon="2.19119">
        <ele>91.3</ele>
        <time>2013-05-26T07:41:00Z</time>
      </trkpt>
      <trkpt lat="49.68657" lon="2.19128">
        <ele>89.6</ele>
        <time>2013-05-26T07:41:16Z</time>
      </trkpt>
      <trkpt lat="49.68645" lon="2.19142">
        <ele>88.9</ele>
        <time>2013-05-26T07:41:22Z</time>
      </trkpt>
      <trkpt lat="49.68635" lon="2.19158">
        <ele>88.1</ele>
        <time>2013-05-26T07:41:30Z</time>
      </trkpt>
      <trkpt lat="49.68635" lon="2.19166">
        <ele>87.8</ele>
        <time>2013-05-26T07:41:33Z</time>
      </trkpt>
      <trkpt lat="49.68637" lon="2.19188">
        <ele>87</ele>
        <time>2013-05-26T07:41:58Z</time>
      </trkpt>
      <trkpt lat="49.68632" lon="2.19208">
        <ele>90.2</ele>
        <time>2013-05-26T07:42:05Z</time>
      </trkpt>
      <trkpt lat="49.68625" lon="2.1923">
        <ele>91</ele>
        <time>2013-05-26T07:42:16Z</time>
      </trkpt>
      <trkpt lat="49.68617" lon="2.19247">
        <ele>91.4</ele>
        <time>2013-05-26T07:42:21Z</time>
      </trkpt>
      <trkpt lat="49.68612" lon="2.19242">
        <ele>92.3</ele>
        <time>2013-05-26T07:42:32Z</time>
      </trkpt>
      <trkpt lat="49.68601" lon="2.1927">
        <ele>91.1</ele>
        <time>2013-05-26T07:43:00Z</time>
      </trkpt>
      <trkpt lat="49.68601" lon="2.1927">
        <ele>91.1</ele>
        <time>2013-05-26T07:45:34Z</time>
      </trkpt>
      <trkpt lat="49.68593" lon="2.1928">
        <ele>89.2</ele>
        <time>2013-05-26T07:45:36Z</time>
      </trkpt>
      <trkpt lat="49.68594" lon="2.19301">
        <ele>89.8</ele>
        <time>2013-05-26T07:45:45Z</time>
      </trkpt>
      <trkpt lat="49.68587" lon="2.1932">
        <ele>90.7</ele>
        <time>2013-05-26T07:45:58Z</time>
      </trkpt>
      <trkpt lat="49.68581" lon="2.1933">
        <ele>91</ele>
        <time>2013-05-26T07:46:03Z</time>
      </trkpt>
      <trkpt lat="49.68591" lon="2.19351">
        <ele>91.6</ele>
        <time>2013-05-26T07:46:11Z</time>
      </trkpt>
      <trkpt lat="49.68593" lon="2.19371">
        <ele>92.7</ele>
        <time>2013-05-26T07:46:28Z</time>
      </trkpt>
      <trkpt lat="49.68593" lon="2.19392">
        <ele>94.3</ele>
        <time>2013-05-26T07:46:39Z</time>
      </trkpt>
      <trkpt lat="49.68601" lon="2.19412">
        <ele>96.3</ele>
        <time>2013-05-26T07:46:51Z</time>
      </trkpt>
      <trkpt lat="49.68607" lon="2.19435">
        <ele>97.9</ele>
        <time>2013-05-26T07:47:05Z</time>
      </trkpt>
      <trkpt lat="49.68601" lon="2.19454">
        <ele>99.2</ele>
        <time>2013-05-26T07:47:20Z</time>
      </trkpt>
      <trkpt lat="49.68602" lon="2.19477">
        <ele>99.7</ele>
        <time>2013-05-26T07:47:30Z</time>
      </trkpt>
      <trkpt lat="49.68599" lon="2.195">
        <ele>100.1</ele>
        <time>2013-05-26T07:47:38Z</time>
      </trkpt>
      <trkpt lat="49.68588" lon="2.19529">
        <ele>101</ele>
        <time>2013-05-26T07:47:46Z</time>
      </trkpt>
      <trkpt lat="49.68586" lon="2.19552">
        <ele>103.8</ele>
        <time>2013-05-26T07:48:08Z</time>
      </trkpt>
      <trkpt lat="49.68594" lon="2.19577">
        <ele>106.2</ele>
        <time>2013-05-26T07:48:15Z</time>
      </trkpt>
      <trkpt lat="49.6859" lon="2.19598">
        <ele>107.2</ele>
        <time>2013-05-26T07:48:25Z</time>
      </trkpt>
      <trkpt lat="49.68583" lon="2.19619">
        <ele>104.6</ele>
        <time>2013-05-26T07:48:40Z</time>
      </trkpt>
      <trkpt lat="49.68582" lon="2.1964">
        <ele>104.5</ele>
        <time>2013-05-26T07:48:53Z</time>
      </trkpt>
      <trkpt lat="49.68587" lon="2.19662">
        <ele>104.8</ele>
        <time>2013-05-26T07:49:05Z</time>
      </trkpt>
      <trkpt lat="49.6859" lon="2.19682">
        <ele>105.5</ele>
        <time>2013-05-26T07:49:15Z</time>
      </trkpt>
      <trkpt lat="49.68588" lon="2.19708">
        <ele>106.2</ele>
        <time>2013-05-26T07:49:25Z</time>
      </trkpt>
      <trkpt lat="49.68593" lon="2.19728">
        <ele>107</ele>
        <time>2013-05-26T07:49:37Z</time>
      </trkpt>
      <trkpt lat="49.68591" lon="2.19753">
        <ele>108.2</ele>
        <time>2013-05-26T07:49:46Z</time>
      </trkpt>
      <trkpt lat="49.68589" lon="2.19775">
        <ele>109.2</ele>
        <time>2013-05-26T07:49:54Z</time>
      </trkpt>
      <trkpt lat="49.68586" lon="2.19797">
        <ele>111.1</ele>
        <time>2013-05-26T07:50:04Z</time>
      </trkpt>
      <trkpt lat="49.68593" lon="2.19814">
        <ele>113.7</ele>
        <time>2013-05-26T07:50:19Z</time>
      </trkpt>
      <trkpt lat="49.68595" lon="2.19836">
        <ele>117.1</ele>
        <time>2013-05-26T07:50:31Z</time>
      </trkpt>
      <trkpt lat="49.68597" lon="2.19857">
        <ele>117.4</ele>
        <time>2013-05-26T07:50:42Z</time>
      </trkpt>
      <trkpt lat="49.68598" lon="2.19878">
        <ele>117.7</ele>
        <time>2013-05-26T07:50:53Z</time>
      </trkpt>
      <trkpt lat="49.68595" lon="2.19899">
        <ele>118.6</ele>
        <time>2013-05-26T07:51:06Z</time>
      </trkpt>
      <trkpt lat="49.68591" lon="2.19921">
        <ele>120.4</ele>
        <time>2013-05-26T07:51:19Z</time>
      </trkpt>
      <trkpt lat="49.68586" lon="2.19941">
        <ele>121.9</ele>
        <time>2013-05-26T07:51:29Z</time>
      </trkpt>
      <trkpt lat="49.68587" lon="2.19964">
        <ele>121.7</ele>
        <time>2013-05-26T07:51:43Z</time>
      </trkpt>
      <trkpt lat="49.68586" lon="2.19985">
        <ele>121.5</ele>
        <time>2013-05-26T07:51:52Z</time>
      </trkpt>
      <trkpt lat="49.68585" lon="2.20006">
        <ele>121.2</ele>
        <time>2013-05-26T07:52:02Z</time>
      </trkpt>
      <trkpt lat="49.68598" lon="2.20017">
        <ele>121.1</ele>
        <time>2013-05-26T07:52:10Z</time>
      </trkpt>
      <trkpt lat="49.68612" lon="2.20016">
        <ele>120.8</ele>
        <time>2013-05-26T07:52:20Z</time>
      </trkpt>
      <trkpt lat="49.68626" lon="2.20021">
        <ele>120.6</ele>
        <time>2013-05-26T07:52:31Z</time>
      </trkpt>
      <trkpt lat="49.68635" lon="2.2002">
        <ele>120.3</ele>
        <time>2013-05-26T07:52:41Z</time>
      </trkpt>
      <trkpt lat="49.68639" lon="2.20014">
        <ele>120.2</ele>
        <time>2013-05-26T07:52:48Z</time>
      </trkpt>
      <trkpt lat="49.68655" lon="2.20017">
        <ele>120</ele>
        <time>2013-05-26T07:52:56Z</time>
      </trkpt>
      <trkpt lat="49.68668" lon="2.20024">
        <ele>119.7</ele>
        <time>2013-05-26T07:53:09Z</time>
      </trkpt>
      <trkpt lat="49.68679" lon="2.20038">
        <ele>119.5</ele>
        <time>2013-05-26T07:53:16Z</time>
      </trkpt>
      <trkpt lat="49.68693" lon="2.20037">
        <ele>119.2</ele>
        <time>2013-05-26T07:53:29Z</time>
      </trkpt>
      <trkpt lat="49.68707" lon="2.20032">
        <ele>118.9</ele>
        <time>2013-05-26T07:53:43Z</time>
      </trkpt>
      <trkpt lat="49.68723" lon="2.20039">
        <ele>118.6</ele>
        <time>2013-05-26T07:53:54Z</time>
      </trkpt>
      <trkpt lat="49.68735" lon="2.20053">
        <ele>118.4</ele>
        <time>2013-05-26T07:54:05Z</time>
      </trkpt>
      <trkpt lat="49.68744" lon="2.20053">
        <ele>117.5</ele>
        <time>2013-05-26T07:54:26Z</time>
      </trkpt>
      <trkpt lat="49.68744" lon="2.20053">
        <ele>117.5</ele>
        <time>2013-05-26T07:55:02Z</time>
      </trkpt>
      <trkpt lat="49.68749" lon="2.20051">
        <ele>117</ele>
        <time>2013-05-26T07:55:03Z</time>
      </trkpt>
      <trkpt lat="49.68761" lon="2.20064">
        <ele>115.6</ele>
        <time>2013-05-26T07:55:15Z</time>
      </trkpt>
      <trkpt lat="49.68774" lon="2.20069">
        <ele>113.3</ele>
        <time>2013-05-26T07:55:25Z</time>
      </trkpt>
      <trkpt lat="49.68783" lon="2.20085">
        <ele>111.2</ele>
        <time>2013-05-26T07:55:34Z</time>
      </trkpt>
      <trkpt lat="49.68792" lon="2.20102">
        <ele>112.4</ele>
        <time>2013-05-26T07:55:45Z</time>
      </trkpt>
      <trkpt lat="49.68804" lon="2.20115">
        <ele>114</ele>
        <time>2013-05-26T07:56:00Z</time>
      </trkpt>
      <trkpt lat="49.68814" lon="2.20131">
        <ele>116.7</ele>
        <time>2013-05-26T07:56:12Z</time>
      </trkpt>
      <trkpt lat="49.68824" lon="2.20144">
        <ele>119.3</ele>
        <time>2013-05-26T07:56:24Z</time>
      </trkpt>
      <trkpt lat="49.68837" lon="2.20155">
        <ele>120</ele>
        <time>2013-05-26T07:56:37Z</time>
      </trkpt>
      <trkpt lat="49.68845" lon="2.2017">
        <ele>120</ele>
        <time>2013-05-26T07:56:51Z</time>
      </trkpt>
      <trkpt lat="49.68848" lon="2.20183">
        <ele>119.9</ele>
        <time>2013-05-26T07:56:58Z</time>
      </trkpt>
      <trkpt lat="49.68853" lon="2.2018">
        <ele>119</ele>
        <time>2013-05-26T07:57:10Z</time>
      </trkpt>
      <trkpt lat="49.68859" lon="2.202">
        <ele>118.6</ele>
        <time>2013-05-26T07:57:16Z</time>
      </trkpt>
      <trkpt lat="49.68864" lon="2.20221">
        <ele>118.1</ele>
        <time>2013-05-26T07:57:23Z</time>
      </trkpt>
      <trkpt lat="49.68875" lon="2.20235">
        <ele>117.5</ele>
        <time>2013-05-26T07:57:31Z</time>
      </trkpt>
      <trkpt lat="49.68884" lon="2.20253">
        <ele>116.4</ele>
        <time>2013-05-26T07:57:46Z</time>
      </trkpt>
      <trkpt lat="49.68892" lon="2.20272">
        <ele>115.7</ele>
        <time>2013-05-26T07:57:53Z</time>
      </trkpt>
      <trkpt lat="49.689" lon="2.2029">
        <ele>113.6</ele>
        <time>2013-05-26T07:58:00Z</time>
      </trkpt>
      <trkpt lat="49.68912" lon="2.20302">
        <ele>115.2</ele>
        <time>2013-05-26T07:58:11Z</time>
      </trkpt>
      <trkpt lat="49.6892" lon="2.20318">
        <ele>112.2</ele>
        <time>2013-05-26T07:58:23Z</time>
      </trkpt>
      <trkpt lat="49.68931" lon="2.20332">
        <ele>106.8</ele>
        <time>2013-05-26T07:58:39Z</time>
      </trkpt>
      <trkpt lat="49.68944" lon="2.20344">
        <ele>109</ele>
        <time>2013-05-26T07:58:50Z</time>
      </trkpt>
      <trkpt lat="49.68955" lon="2.20358">
        <ele>106.2</ele>
        <time>2013-05-26T07:59:01Z</time>
      </trkpt>
      <trkpt lat="49.68966" lon="2.20375">
        <ele>104.2</ele>
        <time>2013-05-26T07:59:12Z</time>
      </trkpt>
      <trkpt lat="49.68977" lon="2.20387">
        <ele>103.4</ele>
        <time>2013-05-26T07:59:23Z</time>
      </trkpt>
      <trkpt lat="49.68988" lon="2.20398">
        <ele>103.9</ele>
        <time>2013-05-26T07:59:33Z</time>
      </trkpt>
      <trkpt lat="49.69" lon="2.20411">
        <ele>103.3</ele>
        <time>2013-05-26T07:59:44Z</time>
      </trkpt>
      <trkpt lat="49.69009" lon="2.20427">
        <ele>102.8</ele>
        <time>2013-05-26T07:59:56Z</time>
      </trkpt>
      <trkpt lat="49.6902" lon="2.20443">
        <ele>102.2</ele>
        <time>2013-05-26T08:00:08Z</time>
      </trkpt>
      <trkpt lat="49.6903" lon="2.20458">
        <ele>101.7</ele>
        <time>2013-05-26T08:00:19Z</time>
      </trkpt>
      <trkpt lat="49.69041" lon="2.2047">
        <ele>101.2</ele>
        <time>2013-05-26T08:00:30Z</time>
      </trkpt>
      <trkpt lat="49.69053" lon="2.20479">
        <ele>102.1</ele>
        <time>2013-05-26T08:00:40Z</time>
      </trkpt>
      <trkpt lat="49.69065" lon="2.20493">
        <ele>103.9</ele>
        <time>2013-05-26T08:00:50Z</time>
      </trkpt>
      <trkpt lat="49.69078" lon="2.205">
        <ele>104.8</ele>
        <time>2013-05-26T08:00:59Z</time>
      </trkpt>
      <trkpt lat="49.6909" lon="2.20514">
        <ele>103.9</ele>
        <time>2013-05-26T08:01:09Z</time>
      </trkpt>
      <trkpt lat="49.69102" lon="2.20527">
        <ele>103.2</ele>
        <time>2013-05-26T08:01:18Z</time>
      </trkpt>
      <trkpt lat="49.69112" lon="2.20542">
        <ele>102.2</ele>
        <time>2013-05-26T08:01:35Z</time>
      </trkpt>
      <trkpt lat="49.69124" lon="2.20555">
        <ele>103.4</ele>
        <time>2013-05-26T08:01:46Z</time>
      </trkpt>
      <trkpt lat="49.69136" lon="2.20567">
        <ele>104.5</ele>
        <time>2013-05-26T08:01:56Z</time>
      </trkpt>
      <trkpt lat="49.69149" lon="2.20579">
        <ele>104.1</ele>
        <time>2013-05-26T08:02:06Z</time>
      </trkpt>
      <trkpt lat="49.69161" lon="2.2059">
        <ele>102.4</ele>
        <time>2013-05-26T08:02:16Z</time>
      </trkpt>
      <trkpt lat="49.6917" lon="2.20607">
        <ele>103.8</ele>
        <time>2013-05-26T08:02:28Z</time>
      </trkpt>
      <trkpt lat="49.69182" lon="2.2062">
        <ele>104.9</ele>
        <time>2013-05-26T08:02:38Z</time>
      </trkpt>
      <trkpt lat="49.69193" lon="2.20635">
        <ele>104.4</ele>
        <time>2013-05-26T08:02:50Z</time>
      </trkpt>
      <trkpt lat="49.69203" lon="2.20648">
        <ele>103.9</ele>
        <time>2013-05-26T08:03:02Z</time>
      </trkpt>
      <trkpt lat="49.69215" lon="2.20661">
        <ele>103.5</ele>
        <time>2013-05-26T08:03:13Z</time>
      </trkpt>
      <trkpt lat="49.69227" lon="2.20671">
        <ele>103.1</ele>
        <time>2013-05-26T08:03:23Z</time>
      </trkpt>
      <trkpt lat="49.6924" lon="2.20681">
        <ele>102.7</ele>
        <time>2013-05-26T08:03:35Z</time>
      </trkpt>
      <trkpt lat="49.69254" lon="2.20687">
        <ele>102.2</ele>
        <time>2013-05-26T08:03:46Z</time>
      </trkpt>
      <trkpt lat="49.69265" lon="2.20699">
        <ele>102.7</ele>
        <time>2013-05-26T08:03:57Z</time>
      </trkpt>
      <trkpt lat="49.69278" lon="2.20704">
        <ele>104.1</ele>
        <time>2013-05-26T08:04:07Z</time>
      </trkpt>
      <trkpt lat="49.6929" lon="2.20714">
        <ele>104.4</ele>
        <time>2013-05-26T08:04:19Z</time>
      </trkpt>
      <trkpt lat="49.69304" lon="2.20721">
        <ele>103.3</ele>
        <time>2013-05-26T08:04:30Z</time>
      </trkpt>
      <trkpt lat="49.69317" lon="2.20729">
        <ele>102.1</ele>
        <time>2013-05-26T08:04:42Z</time>
      </trkpt>
      <trkpt lat="49.6933" lon="2.20734">
        <ele>101.5</ele>
        <time>2013-05-26T08:04:49Z</time>
      </trkpt>
      <trkpt lat="49.69343" lon="2.20741">
        <ele>100.6</ele>
        <time>2013-05-26T08:04:58Z</time>
      </trkpt>
      <trkpt lat="49.69357" lon="2.20748">
        <ele>99.5</ele>
        <time>2013-05-26T08:05:09Z</time>
      </trkpt>
      <trkpt lat="49.69371" lon="2.20754">
        <ele>99.6</ele>
        <time>2013-05-26T08:05:20Z</time>
      </trkpt>
      <trkpt lat="49.69382" lon="2.20765">
        <ele>100.5</ele>
        <time>2013-05-26T08:05:30Z</time>
      </trkpt>
      <trkpt lat="49.69393" lon="2.20779">
        <ele>101.4</ele>
        <time>2013-05-26T08:05:40Z</time>
      </trkpt>
      <trkpt lat="49.69407" lon="2.20782">
        <ele>101</ele>
        <time>2013-05-26T08:05:49Z</time>
      </trkpt>
      <trkpt lat="49.69421" lon="2.20788">
        <ele>97.8</ele>
        <time>2013-05-26T08:05:59Z</time>
      </trkpt>
      <trkpt lat="49.69434" lon="2.20794">
        <ele>97.8</ele>
        <time>2013-05-26T08:06:08Z</time>
      </trkpt>
      <trkpt lat="49.69448" lon="2.20799">
        <ele>99.4</ele>
        <time>2013-05-26T08:06:17Z</time>
      </trkpt>
      <trkpt lat="49.69461" lon="2.20809">
        <ele>101.1</ele>
        <time>2013-05-26T08:06:27Z</time>
      </trkpt>
      <trkpt lat="49.69475" lon="2.20812">
        <ele>102.5</ele>
        <time>2013-05-26T08:06:37Z</time>
      </trkpt>
      <trkpt lat="49.69488" lon="2.20817">
        <ele>103.5</ele>
        <time>2013-05-26T08:06:46Z</time>
      </trkpt>
      <trkpt lat="49.69501" lon="2.20823">
        <ele>104.4</ele>
        <time>2013-05-26T08:06:54Z</time>
      </trkpt>
      <trkpt lat="49.69515" lon="2.20827">
        <ele>105.4</ele>
        <time>2013-05-26T08:07:08Z</time>
      </trkpt>
      <trkpt lat="49.69518" lon="2.20813">
        <ele>105.9</ele>
        <time>2013-05-26T08:07:16Z</time>
      </trkpt>
      <trkpt lat="49.69515" lon="2.20791">
        <ele>106.3</ele>
        <time>2013-05-26T08:07:23Z</time>
      </trkpt>
      <trkpt lat="49.69515" lon="2.2077">
        <ele>107.1</ele>
        <time>2013-05-26T08:07:36Z</time>
      </trkpt>
      <trkpt lat="49.69515" lon="2.20748">
        <ele>107.8</ele>
        <time>2013-05-26T08:07:49Z</time>
      </trkpt>
      <trkpt lat="49.69512" lon="2.20726">
        <ele>109.6</ele>
        <time>2013-05-26T08:07:58Z</time>
      </trkpt>
      <trkpt lat="49.69512" lon="2.20705">
        <ele>112</ele>
        <time>2013-05-26T08:08:07Z</time>
      </trkpt>
      <trkpt lat="49.69504" lon="2.20686">
        <ele>113.3</ele>
        <time>2013-05-26T08:08:14Z</time>
      </trkpt>
      <trkpt lat="49.69493" lon="2.20665">
        <ele>113.7</ele>
        <time>2013-05-26T08:08:16Z</time>
      </trkpt>
      <trkpt lat="49.6949" lon="2.20638">
        <ele>114.6</ele>
        <time>2013-05-26T08:08:21Z</time>
      </trkpt>
      <trkpt lat="49.69489" lon="2.20635">
        <ele>115</ele>
        <time>2013-05-26T08:08:23Z</time>
      </trkpt>
      <trkpt lat="49.69501" lon="2.20621">
        <ele>113.3</ele>
        <time>2013-05-26T08:08:31Z</time>
      </trkpt>
      <trkpt lat="49.69514" lon="2.20635">
        <ele>111.1</ele>
        <time>2013-05-26T08:08:37Z</time>
      </trkpt>
      <trkpt lat="49.69527" lon="2.20646">
        <ele>110</ele>
        <time>2013-05-26T08:08:44Z</time>
      </trkpt>
      <trkpt lat="49.69542" lon="2.2065">
        <ele>107.7</ele>
        <time>2013-05-26T08:08:54Z</time>
      </trkpt>
      <trkpt lat="49.69556" lon="2.20647">
        <ele>109.5</ele>
        <time>2013-05-26T08:09:04Z</time>
      </trkpt>
      <trkpt lat="49.6957" lon="2.20649">
        <ele>110.3</ele>
        <time>2013-05-26T08:09:15Z</time>
      </trkpt>
      <trkpt lat="49.69585" lon="2.20651">
        <ele>110.6</ele>
        <time>2013-05-26T08:09:26Z</time>
      </trkpt>
      <trkpt lat="49.696" lon="2.20651">
        <ele>110.9</ele>
        <time>2013-05-26T08:09:35Z</time>
      </trkpt>
      <trkpt lat="49.69614" lon="2.20653">
        <ele>111.2</ele>
        <time>2013-05-26T08:09:44Z</time>
      </trkpt>
      <trkpt lat="49.69628" lon="2.20655">
        <ele>111.6</ele>
        <time>2013-05-26T08:09:58Z</time>
      </trkpt>
      <trkpt lat="49.69642" lon="2.20652">
        <ele>112</ele>
        <time>2013-05-26T08:10:09Z</time>
      </trkpt>
      <trkpt lat="49.69655" lon="2.20649">
        <ele>112.3</ele>
        <time>2013-05-26T08:10:21Z</time>
      </trkpt>
      <trkpt lat="49.69667" lon="2.20636">
        <ele>112.7</ele>
        <time>2013-05-26T08:10:32Z</time>
      </trkpt>
      <trkpt lat="49.6968" lon="2.20629">
        <ele>113</ele>
        <time>2013-05-26T08:10:42Z</time>
      </trkpt>
      <trkpt lat="49.69694" lon="2.20624">
        <ele>115.5</ele>
        <time>2013-05-26T08:10:52Z</time>
      </trkpt>
      <trkpt lat="49.69708" lon="2.20621">
        <ele>116.9</ele>
        <time>2013-05-26T08:11:02Z</time>
      </trkpt>
      <trkpt lat="49.69722" lon="2.20615">
        <ele>116.3</ele>
        <time>2013-05-26T08:11:17Z</time>
      </trkpt>
      <trkpt lat="49.69744" lon="2.20609">
        <ele>124.9</ele>
        <time>2013-05-26T08:11:43Z</time>
      </trkpt>
      <trkpt lat="49.69744" lon="2.20609">
        <ele>124.9</ele>
        <time>2013-05-26T08:13:53Z</time>
      </trkpt>
      <trkpt lat="49.69756" lon="2.20621">
        <ele>128.1</ele>
        <time>2013-05-26T08:14:01Z</time>
      </trkpt>
      <trkpt lat="49.69756" lon="2.20621">
        <ele>128.1</ele>
        <time>2013-05-26T08:16:02Z</time>
      </trkpt>
      <trkpt lat="49.6976" lon="2.20636">
        <ele>123</ele>
        <time>2013-05-26T08:16:04Z</time>
      </trkpt>
      <trkpt lat="49.69768" lon="2.20654">
        <ele>123</ele>
        <time>2013-05-26T08:16:15Z</time>
      </trkpt>
      <trkpt lat="49.69777" lon="2.20671">
        <ele>125.1</ele>
        <time>2013-05-26T08:16:29Z</time>
      </trkpt>
      <trkpt lat="49.6978" lon="2.20692">
        <ele>127.7</ele>
        <time>2013-05-26T08:16:42Z</time>
      </trkpt>
      <trkpt lat="49.69787" lon="2.2071">
        <ele>130</ele>
        <time>2013-05-26T08:16:55Z</time>
      </trkpt>
      <trkpt lat="49.69797" lon="2.2073">
        <ele>132.4</ele>
        <time>2013-05-26T08:17:03Z</time>
      </trkpt>
      <trkpt lat="49.69807" lon="2.20748">
        <ele>134.6</ele>
        <time>2013-05-26T08:17:15Z</time>
      </trkpt>
      <trkpt lat="49.69815" lon="2.20766">
        <ele>135</ele>
        <time>2013-05-26T08:17:31Z</time>
      </trkpt>
      <trkpt lat="49.69835" lon="2.2078">
        <ele>131.7</ele>
        <time>2013-05-26T08:17:41Z</time>
      </trkpt>
      <trkpt lat="49.69835" lon="2.2078">
        <ele>131.7</ele>
        <time>2013-05-26T08:18:15Z</time>
      </trkpt>
      <trkpt lat="49.69844" lon="2.20781">
        <ele>128.3</ele>
        <time>2013-05-26T08:18:16Z</time>
      </trkpt>
      <trkpt lat="49.69857" lon="2.20774">
        <ele>128.9</ele>
        <time>2013-05-26T08:18:24Z</time>
      </trkpt>
      <trkpt lat="49.69872" lon="2.20777">
        <ele>128.3</ele>
        <time>2013-05-26T08:18:35Z</time>
      </trkpt>
      <trkpt lat="49.69883" lon="2.2076">
        <ele>125</ele>
        <time>2013-05-26T08:18:45Z</time>
      </trkpt>
      <trkpt lat="49.69893" lon="2.20745">
        <ele>124.4</ele>
        <time>2013-05-26T08:18:58Z</time>
      </trkpt>
      <trkpt lat="49.69906" lon="2.20737">
        <ele>124.6</ele>
        <time>2013-05-26T08:19:16Z</time>
      </trkpt>
      <trkpt lat="49.6992" lon="2.2073">
        <ele>125.2</ele>
        <time>2013-05-26T08:19:27Z</time>
      </trkpt>
      <trkpt lat="49.69931" lon="2.20729">
        <ele>125.6</ele>
        <time>2013-05-26T08:19:33Z</time>
      </trkpt>
      <trkpt lat="49.69936" lon="2.20708">
        <ele>126</ele>
        <time>2013-05-26T08:19:40Z</time>
      </trkpt>
      <trkpt lat="49.69947" lon="2.20695">
        <ele>126.6</ele>
        <time>2013-05-26T08:19:50Z</time>
      </trkpt>
      <trkpt lat="49.69961" lon="2.20699">
        <ele>127.2</ele>
        <time>2013-05-26T08:19:59Z</time>
      </trkpt>
      <trkpt lat="49.69972" lon="2.20685">
        <ele>128.1</ele>
        <time>2013-05-26T08:20:10Z</time>
      </trkpt>
      <trkpt lat="49.69985" lon="2.2068">
        <ele>129.1</ele>
        <time>2013-05-26T08:20:22Z</time>
      </trkpt>
      <trkpt lat="49.7" lon="2.20675">
        <ele>130.2</ele>
        <time>2013-05-26T08:20:34Z</time>
      </trkpt>
      <trkpt lat="49.70011" lon="2.20662">
        <ele>130.9</ele>
        <time>2013-05-26T08:20:43Z</time>
      </trkpt>
      <trkpt lat="49.70025" lon="2.20657">
        <ele>131.8</ele>
        <time>2013-05-26T08:20:53Z</time>
      </trkpt>
      <trkpt lat="49.70037" lon="2.20646">
        <ele>132.9</ele>
        <time>2013-05-26T08:21:06Z</time>
      </trkpt>
      <trkpt lat="49.70048" lon="2.20638">
        <ele>133.5</ele>
        <time>2013-05-26T08:21:13Z</time>
      </trkpt>
      <trkpt lat="49.70055" lon="2.20619">
        <ele>135.1</ele>
        <time>2013-05-26T08:21:22Z</time>
      </trkpt>
      <trkpt lat="49.70062" lon="2.206">
        <ele>139.3</ele>
        <time>2013-05-26T08:21:32Z</time>
      </trkpt>
      <trkpt lat="49.70073" lon="2.20587">
        <ele>146</ele>
        <time>2013-05-26T08:21:42Z</time>
      </trkpt>
      <trkpt lat="49.70082" lon="2.2057">
        <ele>146.2</ele>
        <time>2013-05-26T08:21:51Z</time>
      </trkpt>
      <trkpt lat="49.70095" lon="2.2056">
        <ele>146.4</ele>
        <time>2013-05-26T08:22:01Z</time>
      </trkpt>
      <trkpt lat="49.70108" lon="2.20562">
        <ele>146.6</ele>
        <time>2013-05-26T08:22:12Z</time>
      </trkpt>
      <trkpt lat="49.70123" lon="2.20564">
        <ele>146.8</ele>
        <time>2013-05-26T08:22:24Z</time>
      </trkpt>
      <trkpt lat="49.70136" lon="2.20558">
        <ele>147.2</ele>
        <time>2013-05-26T08:22:37Z</time>
      </trkpt>
      <trkpt lat="49.70146" lon="2.2056">
        <ele>147.6</ele>
        <time>2013-05-26T08:22:44Z</time>
      </trkpt>
      <trkpt lat="49.70156" lon="2.20518">
        <ele>147.9</ele>
        <time>2013-05-26T08:22:49Z</time>
      </trkpt>
      <trkpt lat="49.70169" lon="2.20526">
        <ele>145.2</ele>
        <time>2013-05-26T08:23:06Z</time>
      </trkpt>
      <trkpt lat="49.70181" lon="2.20535">
        <ele>142.7</ele>
        <time>2013-05-26T08:23:14Z</time>
      </trkpt>
      <trkpt lat="49.70195" lon="2.20541">
        <ele>138.7</ele>
        <time>2013-05-26T08:23:26Z</time>
      </trkpt>
      <trkpt lat="49.70207" lon="2.20528">
        <ele>137.4</ele>
        <time>2013-05-26T08:23:36Z</time>
      </trkpt>
      <trkpt lat="49.70218" lon="2.20516">
        <ele>136</ele>
        <time>2013-05-26T08:23:46Z</time>
      </trkpt>
      <trkpt lat="49.7023" lon="2.20501">
        <ele>134.8</ele>
        <time>2013-05-26T08:23:55Z</time>
      </trkpt>
      <trkpt lat="49.7024" lon="2.20486">
        <ele>133.4</ele>
        <time>2013-05-26T08:24:05Z</time>
      </trkpt>
      <trkpt lat="49.70253" lon="2.20476">
        <ele>130.6</ele>
        <time>2013-05-26T08:24:14Z</time>
      </trkpt>
      <trkpt lat="49.70263" lon="2.20481">
        <ele>126.5</ele>
        <time>2013-05-26T08:24:21Z</time>
      </trkpt>
      <trkpt lat="49.70268" lon="2.20458">
        <ele>121.5</ele>
        <time>2013-05-26T08:24:28Z</time>
      </trkpt>
      <trkpt lat="49.70276" lon="2.20439">
        <ele>125.5</ele>
        <time>2013-05-26T08:24:36Z</time>
      </trkpt>
      <trkpt lat="49.70289" lon="2.2043">
        <ele>130.7</ele>
        <time>2013-05-26T08:24:47Z</time>
      </trkpt>
      <trkpt lat="49.70303" lon="2.20422">
        <ele>132.4</ele>
        <time>2013-05-26T08:25:00Z</time>
      </trkpt>
      <trkpt lat="49.70317" lon="2.20419">
        <ele>131.7</ele>
        <time>2013-05-26T08:25:10Z</time>
      </trkpt>
      <trkpt lat="49.70328" lon="2.20406">
        <ele>131.1</ele>
        <time>2013-05-26T08:25:20Z</time>
      </trkpt>
      <trkpt lat="49.7034" lon="2.20395">
        <ele>131.9</ele>
        <time>2013-05-26T08:25:29Z</time>
      </trkpt>
      <trkpt lat="49.70352" lon="2.20385">
        <ele>129.8</ele>
        <time>2013-05-26T08:25:38Z</time>
      </trkpt>
      <trkpt lat="49.70364" lon="2.20373">
        <ele>126.4</ele>
        <time>2013-05-26T08:25:46Z</time>
      </trkpt>
      <trkpt lat="49.70377" lon="2.20367">
        <ele>119.3</ele>
        <time>2013-05-26T08:25:56Z</time>
      </trkpt>
      <trkpt lat="49.70391" lon="2.20357">
        <ele>118.3</ele>
        <time>2013-05-26T08:26:01Z</time>
      </trkpt>
      <trkpt lat="49.70402" lon="2.20356">
        <ele>118.7</ele>
        <time>2013-05-26T08:26:04Z</time>
      </trkpt>
      <trkpt lat="49.70412" lon="2.20373">
        <ele>119.3</ele>
        <time>2013-05-26T08:26:10Z</time>
      </trkpt>
      <trkpt lat="49.70416" lon="2.20402">
        <ele>120.1</ele>
        <time>2013-05-26T08:26:17Z</time>
      </trkpt>
      <trkpt lat="49.70424" lon="2.20419">
        <ele>124.8</ele>
        <time>2013-05-26T08:26:40Z</time>
      </trkpt>
      <trkpt lat="49.70434" lon="2.20435">
        <ele>126.1</ele>
        <time>2013-05-26T08:26:53Z</time>
      </trkpt>
      <trkpt lat="49.70446" lon="2.20448">
        <ele>126.6</ele>
        <time>2013-05-26T08:27:01Z</time>
      </trkpt>
      <trkpt lat="49.7046" lon="2.20455">
        <ele>127</ele>
        <time>2013-05-26T08:27:09Z</time>
      </trkpt>
      <trkpt lat="49.70474" lon="2.20459">
        <ele>127</ele>
        <time>2013-05-26T08:27:27Z</time>
      </trkpt>
      <trkpt lat="49.70488" lon="2.20465">
        <ele>128</ele>
        <time>2013-05-26T08:27:38Z</time>
      </trkpt>
      <trkpt lat="49.70502" lon="2.20469">
        <ele>129.5</ele>
        <time>2013-05-26T08:27:50Z</time>
      </trkpt>
      <trkpt lat="49.70516" lon="2.20461">
        <ele>130.6</ele>
        <time>2013-05-26T08:27:59Z</time>
      </trkpt>
      <trkpt lat="49.7053" lon="2.20456">
        <ele>131.5</ele>
        <time>2013-05-26T08:28:06Z</time>
      </trkpt>
      <trkpt lat="49.70545" lon="2.20453">
        <ele>132.4</ele>
        <time>2013-05-26T08:28:15Z</time>
      </trkpt>
      <trkpt lat="49.70558" lon="2.20461">
        <ele>132.8</ele>
        <time>2013-05-26T08:28:20Z</time>
      </trkpt>
      <trkpt lat="49.70571" lon="2.20468">
        <ele>133.4</ele>
        <time>2013-05-26T08:28:27Z</time>
      </trkpt>
      <trkpt lat="49.70581" lon="2.20482">
        <ele>134</ele>
        <time>2013-05-26T08:28:35Z</time>
      </trkpt>
      <trkpt lat="49.70594" lon="2.20496">
        <ele>134.7</ele>
        <time>2013-05-26T08:28:43Z</time>
      </trkpt>
      <trkpt lat="49.70601" lon="2.20506">
        <ele>135.7</ele>
        <time>2013-05-26T08:28:49Z</time>
      </trkpt>
      <trkpt lat="49.70601" lon="2.20529">
        <ele>139.4</ele>
        <time>2013-05-26T08:29:00Z</time>
      </trkpt>
      <trkpt lat="49.70604" lon="2.20549">
        <ele>143.1</ele>
        <time>2013-05-26T08:29:11Z</time>
      </trkpt>
      <trkpt lat="49.70613" lon="2.20568">
        <ele>144</ele>
        <time>2013-05-26T08:29:25Z</time>
      </trkpt>
      <trkpt lat="49.70625" lon="2.20578">
        <ele>144.6</ele>
        <time>2013-05-26T08:29:33Z</time>
      </trkpt>
      <trkpt lat="49.70637" lon="2.20589">
        <ele>145.4</ele>
        <time>2013-05-26T08:29:44Z</time>
      </trkpt>
      <trkpt lat="49.7065" lon="2.20594">
        <ele>146</ele>
        <time>2013-05-26T08:29:53Z</time>
      </trkpt>
      <trkpt lat="49.70665" lon="2.20594">
        <ele>146.2</ele>
        <time>2013-05-26T08:30:04Z</time>
      </trkpt>
      <trkpt lat="49.70678" lon="2.20595">
        <ele>146.7</ele>
        <time>2013-05-26T08:30:15Z</time>
      </trkpt>
      <trkpt lat="49.70692" lon="2.20595">
        <ele>147.2</ele>
        <time>2013-05-26T08:30:25Z</time>
      </trkpt>
      <trkpt lat="49.70707" lon="2.20594">
        <ele>147.8</ele>
        <time>2013-05-26T08:30:37Z</time>
      </trkpt>
      <trkpt lat="49.7072" lon="2.20592">
        <ele>148.2</ele>
        <time>2013-05-26T08:30:47Z</time>
      </trkpt>
      <trkpt lat="49.70734" lon="2.20598">
        <ele>148.7</ele>
        <time>2013-05-26T08:30:56Z</time>
      </trkpt>
      <trkpt lat="49.70748" lon="2.20598">
        <ele>149</ele>
        <time>2013-05-26T08:31:02Z</time>
      </trkpt>
      <trkpt lat="49.7076" lon="2.20606">
        <ele>148.5</ele>
        <time>2013-05-26T08:31:11Z</time>
      </trkpt>
      <trkpt lat="49.70775" lon="2.20604">
        <ele>147.6</ele>
        <time>2013-05-26T08:31:26Z</time>
      </trkpt>
      <trkpt lat="49.70783" lon="2.2062">
        <ele>146.9</ele>
        <time>2013-05-26T08:31:39Z</time>
      </trkpt>
      <trkpt lat="49.70788" lon="2.2064">
        <ele>146.2</ele>
        <time>2013-05-26T08:31:50Z</time>
      </trkpt>
      <trkpt lat="49.70789" lon="2.20662">
        <ele>145.1</ele>
        <time>2013-05-26T08:31:59Z</time>
      </trkpt>
      <trkpt lat="49.70789" lon="2.20684">
        <ele>143.7</ele>
        <time>2013-05-26T08:32:07Z</time>
      </trkpt>
      <trkpt lat="49.70788" lon="2.20705">
        <ele>142.9</ele>
        <time>2013-05-26T08:32:16Z</time>
      </trkpt>
      <trkpt lat="49.70789" lon="2.20727">
        <ele>142.7</ele>
        <time>2013-05-26T08:32:24Z</time>
      </trkpt>
      <trkpt lat="49.70795" lon="2.20746">
        <ele>142.4</ele>
        <time>2013-05-26T08:32:33Z</time>
      </trkpt>
      <trkpt lat="49.70804" lon="2.20762">
        <ele>142.2</ele>
        <time>2013-05-26T08:32:43Z</time>
      </trkpt>
      <trkpt lat="49.70808" lon="2.20783">
        <ele>142</ele>
        <time>2013-05-26T08:32:51Z</time>
      </trkpt>
      <trkpt lat="49.70815" lon="2.20802">
        <ele>141.8</ele>
        <time>2013-05-26T08:32:59Z</time>
      </trkpt>
      <trkpt lat="49.70815" lon="2.20824">
        <ele>141.5</ele>
        <time>2013-05-26T08:33:09Z</time>
      </trkpt>
      <trkpt lat="49.70822" lon="2.20844">
        <ele>141.3</ele>
        <time>2013-05-26T08:33:18Z</time>
      </trkpt>
      <trkpt lat="49.70828" lon="2.20862">
        <ele>141.1</ele>
        <time>2013-05-26T08:33:26Z</time>
      </trkpt>
      <trkpt lat="49.70832" lon="2.20883">
        <ele>140.8</ele>
        <time>2013-05-26T08:33:37Z</time>
      </trkpt>
      <trkpt lat="49.70826" lon="2.20902">
        <ele>140.6</ele>
        <time>2013-05-26T08:33:46Z</time>
      </trkpt>
      <trkpt lat="49.7082" lon="2.20921">
        <ele>140.2</ele>
        <time>2013-05-26T08:34:03Z</time>
      </trkpt>
      <trkpt lat="49.70814" lon="2.20941">
        <ele>139.6</ele>
        <time>2013-05-26T08:34:11Z</time>
      </trkpt>
      <trkpt lat="49.70808" lon="2.20961">
        <ele>137.9</ele>
        <time>2013-05-26T08:34:20Z</time>
      </trkpt>
      <trkpt lat="49.70805" lon="2.20982">
        <ele>136.8</ele>
        <time>2013-05-26T08:34:26Z</time>
      </trkpt>
      <trkpt lat="49.70802" lon="2.21004">
        <ele>135.6</ele>
        <time>2013-05-26T08:34:34Z</time>
      </trkpt>
      <trkpt lat="49.70795" lon="2.21024">
        <ele>134.7</ele>
        <time>2013-05-26T08:34:44Z</time>
      </trkpt>
      <trkpt lat="49.70786" lon="2.21032">
        <ele>134.1</ele>
        <time>2013-05-26T08:34:53Z</time>
      </trkpt>
      <trkpt lat="49.70785" lon="2.21053">
        <ele>134.9</ele>
        <time>2013-05-26T08:35:07Z</time>
      </trkpt>
      <trkpt lat="49.70782" lon="2.21075">
        <ele>138.5</ele>
        <time>2013-05-26T08:35:17Z</time>
      </trkpt>
      <trkpt lat="49.70781" lon="2.21097">
        <ele>141</ele>
        <time>2013-05-26T08:35:31Z</time>
      </trkpt>
      <trkpt lat="49.70791" lon="2.21114">
        <ele>143</ele>
        <time>2013-05-26T08:35:47Z</time>
      </trkpt>
      <trkpt lat="49.70803" lon="2.21128">
        <ele>143.7</ele>
        <time>2013-05-26T08:35:57Z</time>
      </trkpt>
      <trkpt lat="49.70815" lon="2.2114">
        <ele>144.4</ele>
        <time>2013-05-26T08:36:06Z</time>
      </trkpt>
      <trkpt lat="49.70824" lon="2.21158">
        <ele>144.6</ele>
        <time>2013-05-26T08:36:10Z</time>
      </trkpt>
      <trkpt lat="49.70837" lon="2.21176">
        <ele>145</ele>
        <time>2013-05-26T08:36:15Z</time>
      </trkpt>
      <trkpt lat="49.70845" lon="2.21195">
        <ele>146.5</ele>
        <time>2013-05-26T08:36:28Z</time>
      </trkpt>
      <trkpt lat="49.70856" lon="2.21208">
        <ele>146.5</ele>
        <time>2013-05-26T08:36:49Z</time>
      </trkpt>
      <trkpt lat="49.70867" lon="2.21225">
        <ele>146.3</ele>
        <time>2013-05-26T08:36:56Z</time>
      </trkpt>
      <trkpt lat="49.70877" lon="2.2124">
        <ele>146</ele>
        <time>2013-05-26T08:37:03Z</time>
      </trkpt>
      <trkpt lat="49.70881" lon="2.21261">
        <ele>145.8</ele>
        <time>2013-05-26T08:37:09Z</time>
      </trkpt>
      <trkpt lat="49.70883" lon="2.21268">
        <ele>145.6</ele>
        <time>2013-05-26T08:37:17Z</time>
      </trkpt>
      <trkpt lat="49.70897" lon="2.21266">
        <ele>145.4</ele>
        <time>2013-05-26T08:37:22Z</time>
      </trkpt>
      <trkpt lat="49.70912" lon="2.21262">
        <ele>145.2</ele>
        <time>2013-05-26T08:37:26Z</time>
      </trkpt>
      <trkpt lat="49.70926" lon="2.21257">
        <ele>145</ele>
        <time>2013-05-26T08:37:32Z</time>
      </trkpt>
      <trkpt lat="49.7094" lon="2.21253">
        <ele>144.7</ele>
        <time>2013-05-26T08:37:42Z</time>
      </trkpt>
      <trkpt lat="49.7096" lon="2.21253">
        <ele>144.4</ele>
        <time>2013-05-26T08:37:52Z</time>
      </trkpt>
      <trkpt lat="49.70976" lon="2.21254">
        <ele>143.8</ele>
        <time>2013-05-26T08:38:04Z</time>
      </trkpt>
      <trkpt lat="49.70991" lon="2.21252">
        <ele>142.6</ele>
        <time>2013-05-26T08:38:11Z</time>
      </trkpt>
      <trkpt lat="49.71006" lon="2.21254">
        <ele>141</ele>
        <time>2013-05-26T08:38:20Z</time>
      </trkpt>
      <trkpt lat="49.71022" lon="2.21256">
        <ele>140</ele>
        <time>2013-05-26T08:38:26Z</time>
      </trkpt>
      <trkpt lat="49.71037" lon="2.21258">
        <ele>135.8</ele>
        <time>2013-05-26T08:38:33Z</time>
      </trkpt>
      <trkpt lat="49.71051" lon="2.21258">
        <ele>133.8</ele>
        <time>2013-05-26T08:38:44Z</time>
      </trkpt>
      <trkpt lat="49.71065" lon="2.21258">
        <ele>132.6</ele>
        <time>2013-05-26T08:38:51Z</time>
      </trkpt>
      <trkpt lat="49.71079" lon="2.21262">
        <ele>130.6</ele>
        <time>2013-05-26T08:39:05Z</time>
      </trkpt>
      <trkpt lat="49.71093" lon="2.21263">
        <ele>126</ele>
        <time>2013-05-26T08:39:21Z</time>
      </trkpt>
      <trkpt lat="49.71108" lon="2.21262">
        <ele>125.6</ele>
        <time>2013-05-26T08:39:32Z</time>
      </trkpt>
      <trkpt lat="49.71123" lon="2.21262">
        <ele>124.9</ele>
        <time>2013-05-26T08:39:42Z</time>
      </trkpt>
      <trkpt lat="49.71137" lon="2.21268">
        <ele>124.3</ele>
        <time>2013-05-26T08:39:50Z</time>
      </trkpt>
      <trkpt lat="49.71152" lon="2.21266">
        <ele>123.8</ele>
        <time>2013-05-26T08:39:58Z</time>
      </trkpt>
      <trkpt lat="49.71165" lon="2.21256">
        <ele>123.4</ele>
        <time>2013-05-26T08:40:03Z</time>
      </trkpt>
      <trkpt lat="49.71178" lon="2.21245">
        <ele>123</ele>
        <time>2013-05-26T08:40:09Z</time>
      </trkpt>
      <trkpt lat="49.71191" lon="2.21254">
        <ele>122.6</ele>
        <time>2013-05-26T08:40:20Z</time>
      </trkpt>
      <trkpt lat="49.71195" lon="2.21276">
        <ele>121.5</ele>
        <time>2013-05-26T08:40:46Z</time>
      </trkpt>
      <trkpt lat="49.71194" lon="2.21273">
        <ele>119.2</ele>
        <time>2013-05-26T08:41:08Z</time>
      </trkpt>
      <trkpt lat="49.71194" lon="2.21273">
        <ele>119.2</ele>
        <time>2013-05-26T08:42:06Z</time>
      </trkpt>
      <trkpt lat="49.71208" lon="2.21274">
        <ele>114.3</ele>
        <time>2013-05-26T08:42:11Z</time>
      </trkpt>
      <trkpt lat="49.71208" lon="2.21274">
        <ele>114.3</ele>
        <time>2013-05-26T08:43:06Z</time>
      </trkpt>
      <trkpt lat="49.71221" lon="2.21278">
        <ele>111.2</ele>
        <time>2013-05-26T08:43:07Z</time>
      </trkpt>
      <trkpt lat="49.71229" lon="2.21277">
        <ele>110.5</ele>
        <time>2013-05-26T08:43:10Z</time>
      </trkpt>
      <trkpt lat="49.71221" lon="2.21269">
        <ele>112.2</ele>
        <time>2013-05-26T08:43:18Z</time>
      </trkpt>
      <trkpt lat="49.71202" lon="2.21276">
        <ele>113.6</ele>
        <time>2013-05-26T08:43:19Z</time>
      </trkpt>
      <trkpt lat="49.712" lon="2.21275">
        <ele>115.7</ele>
        <time>2013-05-26T08:43:24Z</time>
      </trkpt>
      <trkpt lat="49.71202" lon="2.21286">
        <ele>116.9</ele>
        <time>2013-05-26T08:43:35Z</time>
      </trkpt>
      <trkpt lat="49.71201" lon="2.21296">
        <ele>117.4</ele>
        <time>2013-05-26T08:43:40Z</time>
      </trkpt>
      <trkpt lat="49.71197" lon="2.21294">
        <ele>117.6</ele>
        <time>2013-05-26T08:43:42Z</time>
      </trkpt>
      <trkpt lat="49.71198" lon="2.21272">
        <ele>118.1</ele>
        <time>2013-05-26T08:43:46Z</time>
      </trkpt>
      <trkpt lat="49.71202" lon="2.21263">
        <ele>118.4</ele>
        <time>2013-05-26T08:43:49Z</time>
      </trkpt>
      <trkpt lat="49.71206" lon="2.21283">
        <ele>120</ele>
        <time>2013-05-26T08:44:17Z</time>
      </trkpt>
      <trkpt lat="49.71206" lon="2.21283">
        <ele>120</ele>
        <time>2013-05-26T08:44:58Z</time>
      </trkpt>
      <trkpt lat="49.71206" lon="2.21281">
        <ele>120.4</ele>
        <time>2013-05-26T08:45:05Z</time>
      </trkpt>
      <trkpt lat="49.7121" lon="2.21264">
        <ele>120.6</ele>
        <time>2013-05-26T08:45:18Z</time>
      </trkpt>
      <trkpt lat="49.71208" lon="2.21269">
        <ele>120.8</ele>
        <time>2013-05-26T08:45:28Z</time>
      </trkpt>
      <trkpt lat="49.71207" lon="2.21288">
        <ele>117</ele>
        <time>2013-05-26T08:45:57Z</time>
      </trkpt>
      <trkpt lat="49.71207" lon="2.21288">
        <ele>117</ele>
        <time>2013-05-26T08:51:08Z</time>
      </trkpt>
      <trkpt lat="49.71211" lon="2.21292">
        <ele>118.2</ele>
        <time>2013-05-26T08:51:17Z</time>
      </trkpt>
      <trkpt lat="49.71211" lon="2.21292">
        <ele>118.2</ele>
        <time>2013-05-26T08:53:13Z</time>
      </trkpt>
      <trkpt lat="49.71214" lon="2.21298">
        <ele>123.3</ele>
        <time>2013-05-26T08:53:15Z</time>
      </trkpt>
      <trkpt lat="49.71227" lon="2.21309">
        <ele>123.4</ele>
        <time>2013-05-26T08:53:22Z</time>
      </trkpt>
      <trkpt lat="49.71213" lon="2.21299">
        <ele>123.6</ele>
        <time>2013-05-26T08:53:30Z</time>
      </trkpt>
      <trkpt lat="49.71212" lon="2.21288">
        <ele>124</ele>
        <time>2013-05-26T08:53:54Z</time>
      </trkpt>
      <trkpt lat="49.71212" lon="2.21288">
        <ele>124</ele>
        <time>2013-05-26T08:55:56Z</time>
      </trkpt>
      <trkpt lat="49.71222" lon="2.2129">
        <ele>124</ele>
        <time>2013-05-26T08:55:56Z</time>
      </trkpt>
      <trkpt lat="49.71249" lon="2.2128">
        <ele>123.8</ele>
        <time>2013-05-26T08:56:01Z</time>
      </trkpt>
      <trkpt lat="49.7121" lon="2.21275">
        <ele>123.7</ele>
        <time>2013-05-26T08:56:03Z</time>
      </trkpt>
      <trkpt lat="49.71197" lon="2.21269">
        <ele>123.1</ele>
        <time>2013-05-26T08:56:16Z</time>
      </trkpt>
      <trkpt lat="49.71193" lon="2.21257">
        <ele>122.3</ele>
        <time>2013-05-26T08:56:20Z</time>
      </trkpt>
      <trkpt lat="49.71193" lon="2.21243">
        <ele>121.5</ele>
        <time>2013-05-26T08:56:22Z</time>
      </trkpt>
      <trkpt lat="49.71177" lon="2.21284">
        <ele>117</ele>
        <time>2013-05-26T08:56:35Z</time>
      </trkpt>
      <trkpt lat="49.71181" lon="2.2128">
        <ele>114.6</ele>
        <time>2013-05-26T08:56:48Z</time>
      </trkpt>
      <trkpt lat="49.71193" lon="2.21279">
        <ele>114.4</ele>
        <time>2013-05-26T08:56:49Z</time>
      </trkpt>
      <trkpt lat="49.71197" lon="2.21287">
        <ele>114.1</ele>
        <time>2013-05-26T08:57:09Z</time>
      </trkpt>
      <trkpt lat="49.71174" lon="2.21296">
        <ele>112</ele>
        <time>2013-05-26T08:57:22Z</time>
      </trkpt>
      <trkpt lat="49.71202" lon="2.2129">
        <ele>121</ele>
        <time>2013-05-26T08:57:32Z</time>
      </trkpt>
      <trkpt lat="49.71202" lon="2.2129">
        <ele>121</ele>
        <time>2013-05-26T08:58:12Z</time>
      </trkpt>
      <trkpt lat="49.71197" lon="2.21283">
        <ele>125.4</ele>
        <time>2013-05-26T08:58:24Z</time>
      </trkpt>
      <trkpt lat="49.71197" lon="2.21283">
        <ele>125.4</ele>
        <time>2013-05-26T09:00:17Z</time>
      </trkpt>
      <trkpt lat="49.71194" lon="2.21274">
        <ele>122</ele>
        <time>2013-05-26T09:00:19Z</time>
      </trkpt>
      <trkpt lat="49.71191" lon="2.21264">
        <ele>127.2</ele>
        <time>2013-05-26T09:00:28Z</time>
      </trkpt>
      <trkpt lat="49.71181" lon="2.21249">
        <ele>126.4</ele>
        <time>2013-05-26T09:00:50Z</time>
      </trkpt>
      <trkpt lat="49.71191" lon="2.21235">
        <ele>126.3</ele>
        <time>2013-05-26T09:01:02Z</time>
      </trkpt>
      <trkpt lat="49.71201" lon="2.2122">
        <ele>127</ele>
        <time>2013-05-26T09:01:11Z</time>
      </trkpt>
      <trkpt lat="49.71201" lon="2.21195">
        <ele>127.1</ele>
        <time>2013-05-26T09:01:17Z</time>
      </trkpt>
      <trkpt lat="49.71203" lon="2.2118">
        <ele>127.2</ele>
        <time>2013-05-26T09:01:28Z</time>
      </trkpt>
      <trkpt lat="49.71217" lon="2.21174">
        <ele>127.3</ele>
        <time>2013-05-26T09:01:37Z</time>
      </trkpt>
      <trkpt lat="49.71225" lon="2.21166">
        <ele>127.4</ele>
        <time>2013-05-26T09:01:46Z</time>
      </trkpt>
      <trkpt lat="49.71227" lon="2.21145">
        <ele>127.5</ele>
        <time>2013-05-26T09:01:57Z</time>
      </trkpt>
      <trkpt lat="49.71235" lon="2.21125">
        <ele>127.6</ele>
        <time>2013-05-26T09:02:07Z</time>
      </trkpt>
      <trkpt lat="49.71242" lon="2.21121">
        <ele>127.7</ele>
        <time>2013-05-26T09:02:16Z</time>
      </trkpt>
      <trkpt lat="49.71246" lon="2.21123">
        <ele>127.7</ele>
        <time>2013-05-26T09:02:18Z</time>
      </trkpt>
      <trkpt lat="49.71262" lon="2.21115">
        <ele>127.8</ele>
        <time>2013-05-26T09:02:27Z</time>
      </trkpt>
      <trkpt lat="49.71274" lon="2.21103">
        <ele>127.9</ele>
        <time>2013-05-26T09:02:37Z</time>
      </trkpt>
      <trkpt lat="49.71274" lon="2.21082">
        <ele>128.1</ele>
        <time>2013-05-26T09:02:51Z</time>
      </trkpt>
      <trkpt lat="49.7129" lon="2.21079">
        <ele>128.2</ele>
        <time>2013-05-26T09:03:02Z</time>
      </trkpt>
      <trkpt lat="49.71305" lon="2.21071">
        <ele>128.3</ele>
        <time>2013-05-26T09:03:08Z</time>
      </trkpt>
      <trkpt lat="49.7133" lon="2.2106">
        <ele>128.3</ele>
        <time>2013-05-26T09:03:14Z</time>
      </trkpt>
      <trkpt lat="49.71345" lon="2.21062">
        <ele>128.6</ele>
        <time>2013-05-26T09:03:39Z</time>
      </trkpt>
      <trkpt lat="49.71352" lon="2.21055">
        <ele>128.7</ele>
        <time>2013-05-26T09:03:43Z</time>
      </trkpt>
      <trkpt lat="49.71356" lon="2.21037">
        <ele>128.8</ele>
        <time>2013-05-26T09:03:59Z</time>
      </trkpt>
      <trkpt lat="49.71352" lon="2.21016">
        <ele>128.9</ele>
        <time>2013-05-26T09:04:03Z</time>
      </trkpt>
      <trkpt lat="49.71354" lon="2.20992">
        <ele>129</ele>
        <time>2013-05-26T09:04:11Z</time>
      </trkpt>
      <trkpt lat="49.71356" lon="2.2097">
        <ele>129</ele>
        <time>2013-05-26T09:04:18Z</time>
      </trkpt>
      <trkpt lat="49.7136" lon="2.2095">
        <ele>129.2</ele>
        <time>2013-05-26T09:04:29Z</time>
      </trkpt>
      <trkpt lat="49.71366" lon="2.20952">
        <ele>129.3</ele>
        <time>2013-05-26T09:04:37Z</time>
      </trkpt>
      <trkpt lat="49.71388" lon="2.20935">
        <ele>129.3</ele>
        <time>2013-05-26T09:04:42Z</time>
      </trkpt>
      <trkpt lat="49.71397" lon="2.20934">
        <ele>129.4</ele>
        <time>2013-05-26T09:04:51Z</time>
      </trkpt>
      <trkpt lat="49.71405" lon="2.209">
        <ele>129.5</ele>
        <time>2013-05-26T09:04:57Z</time>
      </trkpt>
      <trkpt lat="49.71406" lon="2.20881">
        <ele>129.6</ele>
        <time>2013-05-26T09:05:07Z</time>
      </trkpt>
      <trkpt lat="49.71409" lon="2.20879">
        <ele>129.6</ele>
        <time>2013-05-26T09:05:10Z</time>
      </trkpt>
      <trkpt lat="49.71413" lon="2.20857">
        <ele>129.7</ele>
        <time>2013-05-26T09:05:17Z</time>
      </trkpt>
      <trkpt lat="49.71411" lon="2.20837">
        <ele>129.8</ele>
        <time>2013-05-26T09:05:24Z</time>
      </trkpt>
      <trkpt lat="49.71404" lon="2.20815">
        <ele>129.8</ele>
        <time>2013-05-26T09:05:31Z</time>
      </trkpt>
      <trkpt lat="49.71404" lon="2.20794">
        <ele>129.9</ele>
        <time>2013-05-26T09:05:38Z</time>
      </trkpt>
      <trkpt lat="49.71409" lon="2.20773">
        <ele>130</ele>
        <time>2013-05-26T09:05:46Z</time>
      </trkpt>
      <trkpt lat="49.71409" lon="2.2075">
        <ele>135</ele>
        <time>2013-05-26T09:05:52Z</time>
      </trkpt>
      <trkpt lat="49.71414" lon="2.2073">
        <ele>134.5</ele>
        <time>2013-05-26T09:06:01Z</time>
      </trkpt>
      <trkpt lat="49.71422" lon="2.20712">
        <ele>133.9</ele>
        <time>2013-05-26T09:06:11Z</time>
      </trkpt>
      <trkpt lat="49.71428" lon="2.20691">
        <ele>133.5</ele>
        <time>2013-05-26T09:06:22Z</time>
      </trkpt>
      <trkpt lat="49.71432" lon="2.2067">
        <ele>133.1</ele>
        <time>2013-05-26T09:06:30Z</time>
      </trkpt>
      <trkpt lat="49.71435" lon="2.20648">
        <ele>132.8</ele>
        <time>2013-05-26T09:06:38Z</time>
      </trkpt>
      <trkpt lat="49.71447" lon="2.20637">
        <ele>132.4</ele>
        <time>2013-05-26T09:06:47Z</time>
      </trkpt>
      <trkpt lat="49.71454" lon="2.20616">
        <ele>131.8</ele>
        <time>2013-05-26T09:07:01Z</time>
      </trkpt>
      <trkpt lat="49.71459" lon="2.20595">
        <ele>131.4</ele>
        <time>2013-05-26T09:07:11Z</time>
      </trkpt>
      <trkpt lat="49.71461" lon="2.20573">
        <ele>131</ele>
        <time>2013-05-26T09:07:20Z</time>
      </trkpt>
      <trkpt lat="49.71459" lon="2.20553">
        <ele>130.7</ele>
        <time>2013-05-26T09:07:28Z</time>
      </trkpt>
      <trkpt lat="49.71457" lon="2.20532">
        <ele>130.3</ele>
        <time>2013-05-26T09:07:37Z</time>
      </trkpt>
      <trkpt lat="49.71454" lon="2.2051">
        <ele>129.9</ele>
        <time>2013-05-26T09:07:46Z</time>
      </trkpt>
      <trkpt lat="49.71451" lon="2.20489">
        <ele>129.5</ele>
        <time>2013-05-26T09:07:56Z</time>
      </trkpt>
      <trkpt lat="49.7145" lon="2.20468">
        <ele>129</ele>
        <time>2013-05-26T09:08:09Z</time>
      </trkpt>
      <trkpt lat="49.7145" lon="2.20444">
        <ele>129.5</ele>
        <time>2013-05-26T09:08:20Z</time>
      </trkpt>
      <trkpt lat="49.7145" lon="2.20422">
        <ele>130</ele>
        <time>2013-05-26T09:08:29Z</time>
      </trkpt>
      <trkpt lat="49.71449" lon="2.20401">
        <ele>130.5</ele>
        <time>2013-05-26T09:08:40Z</time>
      </trkpt>
      <trkpt lat="49.7145" lon="2.20379">
        <ele>130.9</ele>
        <time>2013-05-26T09:08:49Z</time>
      </trkpt>
      <trkpt lat="49.71452" lon="2.20357">
        <ele>131.3</ele>
        <time>2013-05-26T09:08:58Z</time>
      </trkpt>
      <trkpt lat="49.71458" lon="2.20338">
        <ele>131.8</ele>
        <time>2013-05-26T09:09:09Z</time>
      </trkpt>
      <trkpt lat="49.71464" lon="2.20318">
        <ele>132.6</ele>
        <time>2013-05-26T09:09:19Z</time>
      </trkpt>
      <trkpt lat="49.71471" lon="2.20301">
        <ele>134</ele>
        <time>2013-05-26T09:09:30Z</time>
      </trkpt>
      <trkpt lat="49.71479" lon="2.20282">
        <ele>135.5</ele>
        <time>2013-05-26T09:09:42Z</time>
      </trkpt>
      <trkpt lat="49.71485" lon="2.20264">
        <ele>137</ele>
        <time>2013-05-26T09:09:54Z</time>
      </trkpt>
      <trkpt lat="49.71493" lon="2.20245">
        <ele>138.5</ele>
        <time>2013-05-26T09:10:06Z</time>
      </trkpt>
      <trkpt lat="49.7149" lon="2.20231">
        <ele>138.6</ele>
        <time>2013-05-26T09:10:11Z</time>
      </trkpt>
      <trkpt lat="49.71481" lon="2.20219">
        <ele>137.4</ele>
        <time>2013-05-26T09:10:14Z</time>
      </trkpt>
      <trkpt lat="49.71503" lon="2.20222">
        <ele>137</ele>
        <time>2013-05-26T09:10:15Z</time>
      </trkpt>
      <trkpt lat="49.7151" lon="2.20203">
        <ele>137</ele>
        <time>2013-05-26T09:10:32Z</time>
      </trkpt>
      <trkpt lat="49.71515" lon="2.20182">
        <ele>137.7</ele>
        <time>2013-05-26T09:10:40Z</time>
      </trkpt>
      <trkpt lat="49.71517" lon="2.20172">
        <ele>138.2</ele>
        <time>2013-05-26T09:10:45Z</time>
      </trkpt>
      <trkpt lat="49.71531" lon="2.2017">
        <ele>138.9</ele>
        <time>2013-05-26T09:10:53Z</time>
      </trkpt>
      <trkpt lat="49.7154" lon="2.20153">
        <ele>138.1</ele>
        <time>2013-05-26T09:11:09Z</time>
      </trkpt>
      <trkpt lat="49.71545" lon="2.20131">
        <ele>139</ele>
        <time>2013-05-26T09:11:18Z</time>
      </trkpt>
      <trkpt lat="49.71557" lon="2.20119">
        <ele>140</ele>
        <time>2013-05-26T09:11:26Z</time>
      </trkpt>
      <trkpt lat="49.71565" lon="2.20102">
        <ele>141.3</ele>
        <time>2013-05-26T09:11:35Z</time>
      </trkpt>
      <trkpt lat="49.71567" lon="2.2008">
        <ele>142.6</ele>
        <time>2013-05-26T09:11:44Z</time>
      </trkpt>
      <trkpt lat="49.71578" lon="2.20062">
        <ele>144.3</ele>
        <time>2013-05-26T09:11:55Z</time>
      </trkpt>
      <trkpt lat="49.71581" lon="2.20035">
        <ele>145.3</ele>
        <time>2013-05-26T09:12:03Z</time>
      </trkpt>
      <trkpt lat="49.71579" lon="2.20006">
        <ele>145.8</ele>
        <time>2013-05-26T09:12:07Z</time>
      </trkpt>
      <trkpt lat="49.71579" lon="2.19984">
        <ele>147.7</ele>
        <time>2013-05-26T09:12:24Z</time>
      </trkpt>
      <trkpt lat="49.71585" lon="2.19964">
        <ele>148.2</ele>
        <time>2013-05-26T09:12:39Z</time>
      </trkpt>
      <trkpt lat="49.71585" lon="2.19941">
        <ele>148.6</ele>
        <time>2013-05-26T09:12:49Z</time>
      </trkpt>
      <trkpt lat="49.71585" lon="2.19919">
        <ele>149.2</ele>
        <time>2013-05-26T09:12:58Z</time>
      </trkpt>
      <trkpt lat="49.71593" lon="2.199">
        <ele>149.7</ele>
        <time>2013-05-26T09:13:05Z</time>
      </trkpt>
      <trkpt lat="49.71596" lon="2.1988">
        <ele>149.3</ele>
        <time>2013-05-26T09:13:13Z</time>
      </trkpt>
      <trkpt lat="49.71598" lon="2.19855">
        <ele>148.8</ele>
        <time>2013-05-26T09:13:24Z</time>
      </trkpt>
      <trkpt lat="49.71607" lon="2.19838">
        <ele>148.4</ele>
        <time>2013-05-26T09:13:39Z</time>
      </trkpt>
      <trkpt lat="49.71615" lon="2.19821">
        <ele>148</ele>
        <time>2013-05-26T09:13:52Z</time>
      </trkpt>
      <trkpt lat="49.71619" lon="2.19801">
        <ele>147.8</ele>
        <time>2013-05-26T09:14:00Z</time>
      </trkpt>
      <trkpt lat="49.71624" lon="2.19781">
        <ele>147.6</ele>
        <time>2013-05-26T09:14:09Z</time>
      </trkpt>
      <trkpt lat="49.7163" lon="2.19762">
        <ele>147.3</ele>
        <time>2013-05-26T09:14:18Z</time>
      </trkpt>
      <trkpt lat="49.71638" lon="2.19744">
        <ele>147</ele>
        <time>2013-05-26T09:14:30Z</time>
      </trkpt>
      <trkpt lat="49.71643" lon="2.19724">
        <ele>146.7</ele>
        <time>2013-05-26T09:14:41Z</time>
      </trkpt>
      <trkpt lat="49.71646" lon="2.19703">
        <ele>146.6</ele>
        <time>2013-05-26T09:14:47Z</time>
      </trkpt>
      <trkpt lat="49.71659" lon="2.19694">
        <ele>146.3</ele>
        <time>2013-05-26T09:14:57Z</time>
      </trkpt>
      <trkpt lat="49.71672" lon="2.19686">
        <ele>145.8</ele>
        <time>2013-05-26T09:15:09Z</time>
      </trkpt>
      <trkpt lat="49.71685" lon="2.19676">
        <ele>143.9</ele>
        <time>2013-05-26T09:15:20Z</time>
      </trkpt>
      <trkpt lat="49.71697" lon="2.19663">
        <ele>142.7</ele>
        <time>2013-05-26T09:15:32Z</time>
      </trkpt>
      <trkpt lat="49.71707" lon="2.19649">
        <ele>142.3</ele>
        <time>2013-05-26T09:15:40Z</time>
      </trkpt>
      <trkpt lat="49.71718" lon="2.19634">
        <ele>142.2</ele>
        <time>2013-05-26T09:15:51Z</time>
      </trkpt>
      <trkpt lat="49.71729" lon="2.19622">
        <ele>142.7</ele>
        <time>2013-05-26T09:16:02Z</time>
      </trkpt>
      <trkpt lat="49.71731" lon="2.19599">
        <ele>143.1</ele>
        <time>2013-05-26T09:16:10Z</time>
      </trkpt>
      <trkpt lat="49.7172" lon="2.19586">
        <ele>144.3</ele>
        <time>2013-05-26T09:16:21Z</time>
      </trkpt>
      <trkpt lat="49.71709" lon="2.19573">
        <ele>145.9</ele>
        <time>2013-05-26T09:16:36Z</time>
      </trkpt>
      <trkpt lat="49.71697" lon="2.19561">
        <ele>146.7</ele>
        <time>2013-05-26T09:16:47Z</time>
      </trkpt>
      <trkpt lat="49.71685" lon="2.19552">
        <ele>147.4</ele>
        <time>2013-05-26T09:16:57Z</time>
      </trkpt>
      <trkpt lat="49.71673" lon="2.1954">
        <ele>148.8</ele>
        <time>2013-05-26T09:17:09Z</time>
      </trkpt>
      <trkpt lat="49.71666" lon="2.19521">
        <ele>147.7</ele>
        <time>2013-05-26T09:17:21Z</time>
      </trkpt>
      <trkpt lat="49.71663" lon="2.195">
        <ele>146.6</ele>
        <time>2013-05-26T09:17:30Z</time>
      </trkpt>
      <trkpt lat="49.71663" lon="2.19477">
        <ele>145.7</ele>
        <time>2013-05-26T09:17:38Z</time>
      </trkpt>
      <trkpt lat="49.71665" lon="2.19454">
        <ele>144.1</ele>
        <time>2013-05-26T09:17:49Z</time>
      </trkpt>
      <trkpt lat="49.71666" lon="2.19433">
        <ele>142.2</ele>
        <time>2013-05-26T09:17:59Z</time>
      </trkpt>
      <trkpt lat="49.71659" lon="2.19414">
        <ele>142</ele>
        <time>2013-05-26T09:18:09Z</time>
      </trkpt>
      <trkpt lat="49.71658" lon="2.19393">
        <ele>142</ele>
        <time>2013-05-26T09:18:18Z</time>
      </trkpt>
      <trkpt lat="49.71659" lon="2.19372">
        <ele>143.2</ele>
        <time>2013-05-26T09:18:29Z</time>
      </trkpt>
      <trkpt lat="49.71661" lon="2.19345">
        <ele>143.8</ele>
        <time>2013-05-26T09:18:41Z</time>
      </trkpt>
      <trkpt lat="49.71654" lon="2.19326">
        <ele>144.6</ele>
        <time>2013-05-26T09:18:57Z</time>
      </trkpt>
      <trkpt lat="49.71645" lon="2.1931">
        <ele>145</ele>
        <time>2013-05-26T09:19:06Z</time>
      </trkpt>
      <trkpt lat="49.71641" lon="2.19287">
        <ele>145.5</ele>
        <time>2013-05-26T09:19:17Z</time>
      </trkpt>
      <trkpt lat="49.71639" lon="2.19266">
        <ele>146</ele>
        <time>2013-05-26T09:19:27Z</time>
      </trkpt>
      <trkpt lat="49.71627" lon="2.19254">
        <ele>146.4</ele>
        <time>2013-05-26T09:19:37Z</time>
      </trkpt>
      <trkpt lat="49.71615" lon="2.19241">
        <ele>147</ele>
        <time>2013-05-26T09:19:48Z</time>
      </trkpt>
      <trkpt lat="49.71603" lon="2.19231">
        <ele>148.1</ele>
        <time>2013-05-26T09:19:55Z</time>
      </trkpt>
      <trkpt lat="49.71595" lon="2.19212">
        <ele>149.6</ele>
        <time>2013-05-26T09:20:04Z</time>
      </trkpt>
      <trkpt lat="49.71592" lon="2.19191">
        <ele>148.3</ele>
        <time>2013-05-26T09:20:17Z</time>
      </trkpt>
      <trkpt lat="49.71588" lon="2.19184">
        <ele>146.9</ele>
        <time>2013-05-26T09:20:22Z</time>
      </trkpt>
      <trkpt lat="49.7159" lon="2.19163">
        <ele>143.9</ele>
        <time>2013-05-26T09:20:34Z</time>
      </trkpt>
      <trkpt lat="49.71585" lon="2.19142">
        <ele>143.2</ele>
        <time>2013-05-26T09:20:46Z</time>
      </trkpt>
      <trkpt lat="49.71579" lon="2.19122">
        <ele>142.8</ele>
        <time>2013-05-26T09:20:54Z</time>
      </trkpt>
      <trkpt lat="49.71575" lon="2.19101">
        <ele>142.2</ele>
        <time>2013-05-26T09:21:04Z</time>
      </trkpt>
      <trkpt lat="49.71571" lon="2.19079">
        <ele>141.5</ele>
        <time>2013-05-26T09:21:15Z</time>
      </trkpt>
      <trkpt lat="49.71577" lon="2.19061">
        <ele>139.9</ele>
        <time>2013-05-26T09:21:29Z</time>
      </trkpt>
      <trkpt lat="49.71575" lon="2.19038">
        <ele>138.6</ele>
        <time>2013-05-26T09:21:39Z</time>
      </trkpt>
      <trkpt lat="49.7158" lon="2.19013">
        <ele>138.2</ele>
        <time>2013-05-26T09:21:46Z</time>
      </trkpt>
      <trkpt lat="49.71579" lon="2.18992">
        <ele>137.7</ele>
        <time>2013-05-26T09:21:49Z</time>
      </trkpt>
      <trkpt lat="49.71576" lon="2.18987">
        <ele>137</ele>
        <time>2013-05-26T09:21:53Z</time>
      </trkpt>
      <trkpt lat="49.71575" lon="2.18989">
        <ele>136.6</ele>
        <time>2013-05-26T09:21:56Z</time>
      </trkpt>
      <trkpt lat="49.71572" lon="2.18988">
        <ele>136.4</ele>
        <time>2013-05-26T09:22:00Z</time>
      </trkpt>
      <trkpt lat="49.7158" lon="2.18969">
        <ele>140</ele>
        <time>2013-05-26T09:22:09Z</time>
      </trkpt>
      <trkpt lat="49.71582" lon="2.18967">
        <ele>136</ele>
        <time>2013-05-26T09:22:14Z</time>
      </trkpt>
      <trkpt lat="49.71568" lon="2.18969">
        <ele>129.3</ele>
        <time>2013-05-26T09:22:24Z</time>
      </trkpt>
      <trkpt lat="49.71558" lon="2.18954">
        <ele>123.1</ele>
        <time>2013-05-26T09:22:37Z</time>
      </trkpt>
      <trkpt lat="49.71553" lon="2.18933">
        <ele>124.4</ele>
        <time>2013-05-26T09:22:48Z</time>
      </trkpt>
      <trkpt lat="49.71542" lon="2.1892">
        <ele>125</ele>
        <time>2013-05-26T09:23:03Z</time>
      </trkpt>
      <trkpt lat="49.71536" lon="2.189">
        <ele>125</ele>
        <time>2013-05-26T09:23:13Z</time>
      </trkpt>
      <trkpt lat="49.7153" lon="2.18904">
        <ele>125</ele>
        <time>2013-05-26T09:23:19Z</time>
      </trkpt>
      <trkpt lat="49.71537" lon="2.18882">
        <ele>124.6</ele>
        <time>2013-05-26T09:23:27Z</time>
      </trkpt>
      <trkpt lat="49.71543" lon="2.18884">
        <ele>124.3</ele>
        <time>2013-05-26T09:23:32Z</time>
      </trkpt>
      <trkpt lat="49.71533" lon="2.18867">
        <ele>123.8</ele>
        <time>2013-05-26T09:23:40Z</time>
      </trkpt>
      <trkpt lat="49.7154" lon="2.18864">
        <ele>123</ele>
        <time>2013-05-26T09:23:54Z</time>
      </trkpt>
      <trkpt lat="49.71537" lon="2.18842">
        <ele>122.2</ele>
        <time>2013-05-26T09:24:07Z</time>
      </trkpt>
      <trkpt lat="49.71531" lon="2.18823">
        <ele>121.9</ele>
        <time>2013-05-26T09:24:12Z</time>
      </trkpt>
      <trkpt lat="49.71518" lon="2.18812">
        <ele>121.5</ele>
        <time>2013-05-26T09:24:22Z</time>
      </trkpt>
      <trkpt lat="49.71512" lon="2.18793">
        <ele>120.9</ele>
        <time>2013-05-26T09:24:34Z</time>
      </trkpt>
      <trkpt lat="49.71504" lon="2.18776">
        <ele>120.5</ele>
        <time>2013-05-26T09:24:44Z</time>
      </trkpt>
      <trkpt lat="49.71491" lon="2.1876">
        <ele>120.2</ele>
        <time>2013-05-26T09:24:50Z</time>
      </trkpt>
      <trkpt lat="49.71478" lon="2.18743">
        <ele>120</ele>
        <time>2013-05-26T09:24:55Z</time>
      </trkpt>
      <trkpt lat="49.71473" lon="2.18721">
        <ele>119.8</ele>
        <time>2013-05-26T09:25:00Z</time>
      </trkpt>
      <trkpt lat="49.71475" lon="2.18693">
        <ele>119.4</ele>
        <time>2013-05-26T09:25:09Z</time>
      </trkpt>
      <trkpt lat="49.71471" lon="2.18673">
        <ele>118.4</ele>
        <time>2013-05-26T09:25:32Z</time>
      </trkpt>
      <trkpt lat="49.71465" lon="2.18651">
        <ele>118</ele>
        <time>2013-05-26T09:25:40Z</time>
      </trkpt>
      <trkpt lat="49.71462" lon="2.18631">
        <ele>114.4</ele>
        <time>2013-05-26T09:25:51Z</time>
      </trkpt>
      <trkpt lat="49.71466" lon="2.1861">
        <ele>114</ele>
        <time>2013-05-26T09:26:03Z</time>
      </trkpt>
      <trkpt lat="49.71469" lon="2.18589">
        <ele>114</ele>
        <time>2013-05-26T09:26:13Z</time>
      </trkpt>
      <trkpt lat="49.71465" lon="2.18568">
        <ele>114</ele>
        <time>2013-05-26T09:26:31Z</time>
      </trkpt>
      <trkpt lat="49.71454" lon="2.18553">
        <ele>113.5</ele>
        <time>2013-05-26T09:26:39Z</time>
      </trkpt>
      <trkpt lat="49.71446" lon="2.18535">
        <ele>113.1</ele>
        <time>2013-05-26T09:26:45Z</time>
      </trkpt>
      <trkpt lat="49.71438" lon="2.18514">
        <ele>112.6</ele>
        <time>2013-05-26T09:26:53Z</time>
      </trkpt>
      <trkpt lat="49.71433" lon="2.18486">
        <ele>112</ele>
        <time>2013-05-26T09:27:03Z</time>
      </trkpt>
      <trkpt lat="49.71429" lon="2.18465">
        <ele>111.3</ele>
        <time>2013-05-26T09:27:14Z</time>
      </trkpt>
      <trkpt lat="49.71427" lon="2.18444">
        <ele>110.3</ele>
        <time>2013-05-26T09:27:26Z</time>
      </trkpt>
      <trkpt lat="49.7142" lon="2.18424">
        <ele>109.4</ele>
        <time>2013-05-26T09:27:36Z</time>
      </trkpt>
      <trkpt lat="49.71416" lon="2.18402">
        <ele>108.1</ele>
        <time>2013-05-26T09:27:50Z</time>
      </trkpt>
      <trkpt lat="49.71417" lon="2.18382">
        <ele>107.2</ele>
        <time>2013-05-26T09:28:00Z</time>
      </trkpt>
      <trkpt lat="49.71419" lon="2.18358">
        <ele>107.6</ele>
        <time>2013-05-26T09:28:11Z</time>
      </trkpt>
      <trkpt lat="49.71419" lon="2.18337">
        <ele>108.2</ele>
        <time>2013-05-26T09:28:20Z</time>
      </trkpt>
      <trkpt lat="49.71411" lon="2.18319">
        <ele>108.8</ele>
        <time>2013-05-26T09:28:29Z</time>
      </trkpt>
      <trkpt lat="49.71416" lon="2.18299">
        <ele>109.8</ele>
        <time>2013-05-26T09:28:44Z</time>
      </trkpt>
      <trkpt lat="49.71412" lon="2.18278">
        <ele>110.3</ele>
        <time>2013-05-26T09:28:53Z</time>
      </trkpt>
      <trkpt lat="49.71407" lon="2.18256">
        <ele>110.9</ele>
        <time>2013-05-26T09:29:02Z</time>
      </trkpt>
      <trkpt lat="49.71408" lon="2.18234">
        <ele>109.6</ele>
        <time>2013-05-26T09:29:12Z</time>
      </trkpt>
      <trkpt lat="49.7141" lon="2.18213">
        <ele>107.5</ele>
        <time>2013-05-26T09:29:25Z</time>
      </trkpt>
      <trkpt lat="49.71414" lon="2.18194">
        <ele>104.6</ele>
        <time>2013-05-26T09:29:36Z</time>
      </trkpt>
      <trkpt lat="49.7141" lon="2.18173">
        <ele>103.6</ele>
        <time>2013-05-26T09:29:44Z</time>
      </trkpt>
      <trkpt lat="49.71407" lon="2.18151">
        <ele>103.1</ele>
        <time>2013-05-26T09:29:52Z</time>
      </trkpt>
      <trkpt lat="49.71407" lon="2.1814">
        <ele>102.8</ele>
        <time>2013-05-26T09:29:58Z</time>
      </trkpt>
      <trkpt lat="49.71408" lon="2.18118">
        <ele>102.2</ele>
        <time>2013-05-26T09:30:12Z</time>
      </trkpt>
      <trkpt lat="49.71403" lon="2.18097">
        <ele>102.7</ele>
        <time>2013-05-26T09:30:27Z</time>
      </trkpt>
      <trkpt lat="49.71398" lon="2.18076">
        <ele>102.2</ele>
        <time>2013-05-26T09:30:38Z</time>
      </trkpt>
      <trkpt lat="49.71389" lon="2.18057">
        <ele>102</ele>
        <time>2013-05-26T09:30:44Z</time>
      </trkpt>
      <trkpt lat="49.71381" lon="2.18038">
        <ele>101.5</ele>
        <time>2013-05-26T09:30:54Z</time>
      </trkpt>
      <trkpt lat="49.71379" lon="2.18017">
        <ele>101.1</ele>
        <time>2013-05-26T09:31:04Z</time>
      </trkpt>
      <trkpt lat="49.71376" lon="2.17995">
        <ele>100.3</ele>
        <time>2013-05-26T09:31:22Z</time>
      </trkpt>
      <trkpt lat="49.7137" lon="2.17974">
        <ele>99.9</ele>
        <time>2013-05-26T09:31:30Z</time>
      </trkpt>
      <trkpt lat="49.71373" lon="2.17953">
        <ele>99.5</ele>
        <time>2013-05-26T09:31:38Z</time>
      </trkpt>
      <trkpt lat="49.71369" lon="2.1795">
        <ele>99.2</ele>
        <time>2013-05-26T09:31:43Z</time>
      </trkpt>
      <trkpt lat="49.71364" lon="2.17961">
        <ele>98.8</ele>
        <time>2013-05-26T09:31:51Z</time>
      </trkpt>
      <trkpt lat="49.71359" lon="2.17968">
        <ele>96.8</ele>
        <time>2013-05-26T09:32:10Z</time>
      </trkpt>
      <trkpt lat="49.71359" lon="2.17968">
        <ele>96.8</ele>
        <time>2013-05-26T09:33:44Z</time>
      </trkpt>
      <trkpt lat="49.71354" lon="2.17968">
        <ele>95.6</ele>
        <time>2013-05-26T09:33:44Z</time>
      </trkpt>
      <trkpt lat="49.71358" lon="2.17974">
        <ele>94.4</ele>
        <time>2013-05-26T09:33:53Z</time>
      </trkpt>
      <trkpt lat="49.71358" lon="2.17974">
        <ele>94.4</ele>
        <time>2013-05-26T09:34:25Z</time>
      </trkpt>
      <trkpt lat="49.71361" lon="2.17979">
        <ele>93.8</ele>
        <time>2013-05-26T09:34:30Z</time>
      </trkpt>
      <trkpt lat="49.71359" lon="2.17979">
        <ele>94.4</ele>
        <time>2013-05-26T09:34:38Z</time>
      </trkpt>
      <trkpt lat="49.71361" lon="2.17957">
        <ele>96.4</ele>
        <time>2013-05-26T09:35:03Z</time>
      </trkpt>
      <trkpt lat="49.71362" lon="2.17936">
        <ele>92.9</ele>
        <time>2013-05-26T09:35:22Z</time>
      </trkpt>
      <trkpt lat="49.71349" lon="2.17929">
        <ele>92.1</ele>
        <time>2013-05-26T09:35:37Z</time>
      </trkpt>
      <trkpt lat="49.71344" lon="2.17909">
        <ele>91.8</ele>
        <time>2013-05-26T09:35:44Z</time>
      </trkpt>
      <trkpt lat="49.71343" lon="2.17888">
        <ele>91.4</ele>
        <time>2013-05-26T09:35:50Z</time>
      </trkpt>
      <trkpt lat="49.7134" lon="2.17866">
        <ele>91.1</ele>
        <time>2013-05-26T09:35:56Z</time>
      </trkpt>
      <trkpt lat="49.71341" lon="2.17844">
        <ele>90.7</ele>
        <time>2013-05-26T09:36:03Z</time>
      </trkpt>
      <trkpt lat="49.71354" lon="2.17835">
        <ele>90.1</ele>
        <time>2013-05-26T09:36:14Z</time>
      </trkpt>
      <trkpt lat="49.71363" lon="2.17829">
        <ele>88.9</ele>
        <time>2013-05-26T09:36:37Z</time>
      </trkpt>
      <trkpt lat="49.71378" lon="2.17837">
        <ele>88.6</ele>
        <time>2013-05-26T09:36:42Z</time>
      </trkpt>
      <trkpt lat="49.71402" lon="2.17836">
        <ele>88.4</ele>
        <time>2013-05-26T09:36:46Z</time>
      </trkpt>
      <trkpt lat="49.71416" lon="2.17832">
        <ele>87.4</ele>
        <time>2013-05-26T09:37:04Z</time>
      </trkpt>
      <trkpt lat="49.71421" lon="2.1781">
        <ele>86.2</ele>
        <time>2013-05-26T09:37:16Z</time>
      </trkpt>
      <trkpt lat="49.71422" lon="2.17789">
        <ele>86.4</ele>
        <time>2013-05-26T09:37:24Z</time>
      </trkpt>
      <trkpt lat="49.71417" lon="2.17769">
        <ele>87.1</ele>
        <time>2013-05-26T09:37:39Z</time>
      </trkpt>
      <trkpt lat="49.71407" lon="2.17754">
        <ele>87.6</ele>
        <time>2013-05-26T09:37:48Z</time>
      </trkpt>
      <trkpt lat="49.71397" lon="2.17735">
        <ele>87.8</ele>
        <time>2013-05-26T09:37:52Z</time>
      </trkpt>
      <trkpt lat="49.71384" lon="2.17723">
        <ele>88</ele>
        <time>2013-05-26T09:37:56Z</time>
      </trkpt>
      <trkpt lat="49.71385" lon="2.17701">
        <ele>88.5</ele>
        <time>2013-05-26T09:38:14Z</time>
      </trkpt>
      <trkpt lat="49.71371" lon="2.17691">
        <ele>88.8</ele>
        <time>2013-05-26T09:38:25Z</time>
      </trkpt>
      <trkpt lat="49.71359" lon="2.1768">
        <ele>89</ele>
        <time>2013-05-26T09:38:32Z</time>
      </trkpt>
      <trkpt lat="49.71362" lon="2.17657">
        <ele>89.2</ele>
        <time>2013-05-26T09:38:40Z</time>
      </trkpt>
      <trkpt lat="49.71359" lon="2.17636">
        <ele>89.7</ele>
        <time>2013-05-26T09:38:58Z</time>
      </trkpt>
      <trkpt lat="49.71348" lon="2.17625">
        <ele>90</ele>
        <time>2013-05-26T09:39:11Z</time>
      </trkpt>
      <trkpt lat="49.7134" lon="2.17606">
        <ele>90.4</ele>
        <time>2013-05-26T09:39:26Z</time>
      </trkpt>
      <trkpt lat="49.71327" lon="2.17595">
        <ele>90.6</ele>
        <time>2013-05-26T09:39:31Z</time>
      </trkpt>
      <trkpt lat="49.71315" lon="2.17584">
        <ele>90.8</ele>
        <time>2013-05-26T09:39:38Z</time>
      </trkpt>
      <trkpt lat="49.71301" lon="2.17585">
        <ele>90.9</ele>
        <time>2013-05-26T09:39:43Z</time>
      </trkpt>
      <trkpt lat="49.71287" lon="2.17575">
        <ele>92.3</ele>
        <time>2013-05-26T09:39:54Z</time>
      </trkpt>
      <trkpt lat="49.71274" lon="2.17568">
        <ele>93.4</ele>
        <time>2013-05-26T09:40:00Z</time>
      </trkpt>
      <trkpt lat="49.71261" lon="2.17556">
        <ele>89.8</ele>
        <time>2013-05-26T09:40:17Z</time>
      </trkpt>
      <trkpt lat="49.71254" lon="2.17538">
        <ele>86</ele>
        <time>2013-05-26T09:40:29Z</time>
      </trkpt>
      <trkpt lat="49.71246" lon="2.17521">
        <ele>83.5</ele>
        <time>2013-05-26T09:40:38Z</time>
      </trkpt>
      <trkpt lat="49.71244" lon="2.175">
        <ele>80.3</ele>
        <time>2013-05-26T09:40:46Z</time>
      </trkpt>
      <trkpt lat="49.71242" lon="2.17479">
        <ele>78</ele>
        <time>2013-05-26T09:41:03Z</time>
      </trkpt>
      <trkpt lat="49.71237" lon="2.17459">
        <ele>76.6</ele>
        <time>2013-05-26T09:41:14Z</time>
      </trkpt>
      <trkpt lat="49.71235" lon="2.17438">
        <ele>74.3</ele>
        <time>2013-05-26T09:41:24Z</time>
      </trkpt>
      <trkpt lat="49.7123" lon="2.17416">
        <ele>76.9</ele>
        <time>2013-05-26T09:41:31Z</time>
      </trkpt>
      <trkpt lat="49.71229" lon="2.17395">
        <ele>75.5</ele>
        <time>2013-05-26T09:41:44Z</time>
      </trkpt>
      <trkpt lat="49.71226" lon="2.17374">
        <ele>73.6</ele>
        <time>2013-05-26T09:41:54Z</time>
      </trkpt>
      <trkpt lat="49.71219" lon="2.17355">
        <ele>72.2</ele>
        <time>2013-05-26T09:42:02Z</time>
      </trkpt>
      <trkpt lat="49.71215" lon="2.17334">
        <ele>71.3</ele>
        <time>2013-05-26T09:42:10Z</time>
      </trkpt>
      <trkpt lat="49.71218" lon="2.17314">
        <ele>70</ele>
        <time>2013-05-26T09:42:22Z</time>
      </trkpt>
      <trkpt lat="49.71218" lon="2.17293">
        <ele>68.8</ele>
        <time>2013-05-26T09:42:34Z</time>
      </trkpt>
      <trkpt lat="49.71214" lon="2.17273">
        <ele>68.1</ele>
        <time>2013-05-26T09:42:42Z</time>
      </trkpt>
      <trkpt lat="49.71206" lon="2.17254">
        <ele>67.2</ele>
        <time>2013-05-26T09:42:56Z</time>
      </trkpt>
      <trkpt lat="49.712" lon="2.17234">
        <ele>68.8</ele>
        <time>2013-05-26T09:43:04Z</time>
      </trkpt>
      <trkpt lat="49.71197" lon="2.17214">
        <ele>70.7</ele>
        <time>2013-05-26T09:43:13Z</time>
      </trkpt>
      <trkpt lat="49.71189" lon="2.17195">
        <ele>69.4</ele>
        <time>2013-05-26T09:43:25Z</time>
      </trkpt>
      <trkpt lat="49.71176" lon="2.17198">
        <ele>68.3</ele>
        <time>2013-05-26T09:43:35Z</time>
      </trkpt>
      <trkpt lat="49.71163" lon="2.17208">
        <ele>67.7</ele>
        <time>2013-05-26T09:43:44Z</time>
      </trkpt>
      <trkpt lat="49.71149" lon="2.17214">
        <ele>67.2</ele>
        <time>2013-05-26T09:43:55Z</time>
      </trkpt>
      <trkpt lat="49.71135" lon="2.17213">
        <ele>66.8</ele>
        <time>2013-05-26T09:44:05Z</time>
      </trkpt>
      <trkpt lat="49.7112" lon="2.17216">
        <ele>66.3</ele>
        <time>2013-05-26T09:44:15Z</time>
      </trkpt>
      <trkpt lat="49.71106" lon="2.17218">
        <ele>65.8</ele>
        <time>2013-05-26T09:44:27Z</time>
      </trkpt>
      <trkpt lat="49.71092" lon="2.1722">
        <ele>65.4</ele>
        <time>2013-05-26T09:44:36Z</time>
      </trkpt>
      <trkpt lat="49.71078" lon="2.17221">
        <ele>65</ele>
        <time>2013-05-26T09:44:45Z</time>
      </trkpt>
      <trkpt lat="49.71065" lon="2.17212">
        <ele>61.7</ele>
        <time>2013-05-26T09:44:55Z</time>
      </trkpt>
      <trkpt lat="49.71054" lon="2.17198">
        <ele>59.7</ele>
        <time>2013-05-26T09:45:01Z</time>
      </trkpt>
      <trkpt lat="49.71045" lon="2.17215">
        <ele>63.1</ele>
        <time>2013-05-26T09:45:12Z</time>
      </trkpt>
      <trkpt lat="49.71032" lon="2.17216">
        <ele>65.1</ele>
        <time>2013-05-26T09:45:23Z</time>
      </trkpt>
      <trkpt lat="49.71017" lon="2.17213">
        <ele>66.4</ele>
        <time>2013-05-26T09:45:34Z</time>
      </trkpt>
      <trkpt lat="49.71004" lon="2.17221">
        <ele>67.4</ele>
        <time>2013-05-26T09:45:42Z</time>
      </trkpt>
      <trkpt lat="49.7099" lon="2.17222">
        <ele>69</ele>
        <time>2013-05-26T09:45:55Z</time>
      </trkpt>
      <trkpt lat="49.70976" lon="2.17219">
        <ele>70.1</ele>
        <time>2013-05-26T09:46:04Z</time>
      </trkpt>
      <trkpt lat="49.70967" lon="2.17203">
        <ele>70.9</ele>
        <time>2013-05-26T09:46:13Z</time>
      </trkpt>
      <trkpt lat="49.70965" lon="2.1718">
        <ele>68.8</ele>
        <time>2013-05-26T09:46:22Z</time>
      </trkpt>
      <trkpt lat="49.70964" lon="2.17158">
        <ele>66</ele>
        <time>2013-05-26T09:46:33Z</time>
      </trkpt>
      <trkpt lat="49.70965" lon="2.17148">
        <ele>64.5</ele>
        <time>2013-05-26T09:46:38Z</time>
      </trkpt>
      <trkpt lat="49.70962" lon="2.17129">
        <ele>62.6</ele>
        <time>2013-05-26T09:46:46Z</time>
      </trkpt>
      <trkpt lat="49.70962" lon="2.17129">
        <ele>62.6</ele>
        <time>2013-05-26T09:48:01Z</time>
      </trkpt>
      <trkpt lat="49.70951" lon="2.17115">
        <ele>61.8</ele>
        <time>2013-05-26T09:48:04Z</time>
      </trkpt>
      <trkpt lat="49.70946" lon="2.17094">
        <ele>63.9</ele>
        <time>2013-05-26T09:48:12Z</time>
      </trkpt>
      <trkpt lat="49.70935" lon="2.17081">
        <ele>65.8</ele>
        <time>2013-05-26T09:48:19Z</time>
      </trkpt>
      <trkpt lat="49.70929" lon="2.17062">
        <ele>68.4</ele>
        <time>2013-05-26T09:48:29Z</time>
      </trkpt>
      <trkpt lat="49.70928" lon="2.17045">
        <ele>69.7</ele>
        <time>2013-05-26T09:48:46Z</time>
      </trkpt>
      <trkpt lat="49.70921" lon="2.17041">
        <ele>66.6</ele>
        <time>2013-05-26T09:48:51Z</time>
      </trkpt>
      <trkpt lat="49.70919" lon="2.17017">
        <ele>64.2</ele>
        <time>2013-05-26T09:49:06Z</time>
      </trkpt>
      <trkpt lat="49.70923" lon="2.16997">
        <ele>63.5</ele>
        <time>2013-05-26T09:49:16Z</time>
      </trkpt>
      <trkpt lat="49.70932" lon="2.16978">
        <ele>62.9</ele>
        <time>2013-05-26T09:49:25Z</time>
      </trkpt>
      <trkpt lat="49.70936" lon="2.16959">
        <ele>62.3</ele>
        <time>2013-05-26T09:49:34Z</time>
      </trkpt>
      <trkpt lat="49.70949" lon="2.16948">
        <ele>61.5</ele>
        <time>2013-05-26T09:49:46Z</time>
      </trkpt>
      <trkpt lat="49.7096" lon="2.16934">
        <ele>61.2</ele>
        <time>2013-05-26T09:49:56Z</time>
      </trkpt>
      <trkpt lat="49.70962" lon="2.16911">
        <ele>62.9</ele>
        <time>2013-05-26T09:50:11Z</time>
      </trkpt>
      <trkpt lat="49.70955" lon="2.16892">
        <ele>64</ele>
        <time>2013-05-26T09:50:22Z</time>
      </trkpt>
      <trkpt lat="49.70946" lon="2.16877">
        <ele>57</ele>
        <time>2013-05-26T09:50:32Z</time>
      </trkpt>
      <trkpt lat="49.70934" lon="2.16865">
        <ele>59.1</ele>
        <time>2013-05-26T09:50:48Z</time>
      </trkpt>
      <trkpt lat="49.70929" lon="2.16857">
        <ele>59.7</ele>
        <time>2013-05-26T09:50:51Z</time>
      </trkpt>
      <trkpt lat="49.70921" lon="2.16855">
        <ele>58.8</ele>
        <time>2013-05-26T09:50:58Z</time>
      </trkpt>
      <trkpt lat="49.70912" lon="2.16837">
        <ele>57</ele>
        <time>2013-05-26T09:51:06Z</time>
      </trkpt>
      <trkpt lat="49.709" lon="2.16827">
        <ele>59.4</ele>
        <time>2013-05-26T09:51:16Z</time>
      </trkpt>
      <trkpt lat="49.70888" lon="2.16814">
        <ele>61.8</ele>
        <time>2013-05-26T09:51:23Z</time>
      </trkpt>
      <trkpt lat="49.70885" lon="2.16794">
        <ele>65</ele>
        <time>2013-05-26T09:51:34Z</time>
      </trkpt>
      <trkpt lat="49.70878" lon="2.16774">
        <ele>65.5</ele>
        <time>2013-05-26T09:51:46Z</time>
      </trkpt>
      <trkpt lat="49.7087" lon="2.16758">
        <ele>65.9</ele>
        <time>2013-05-26T09:51:54Z</time>
      </trkpt>
      <trkpt lat="49.7086" lon="2.1674">
        <ele>67</ele>
        <time>2013-05-26T09:52:04Z</time>
      </trkpt>
      <trkpt lat="49.70849" lon="2.16725">
        <ele>67</ele>
        <time>2013-05-26T09:52:13Z</time>
      </trkpt>
      <trkpt lat="49.70844" lon="2.16705">
        <ele>67</ele>
        <time>2013-05-26T09:52:21Z</time>
      </trkpt>
      <trkpt lat="49.70836" lon="2.16688">
        <ele>65.1</ele>
        <time>2013-05-26T09:52:35Z</time>
      </trkpt>
      <trkpt lat="49.70827" lon="2.16672">
        <ele>63.8</ele>
        <time>2013-05-26T09:52:48Z</time>
      </trkpt>
      <trkpt lat="49.70822" lon="2.16651">
        <ele>67.6</ele>
        <time>2013-05-26T09:52:57Z</time>
      </trkpt>
      <trkpt lat="49.70816" lon="2.1663">
        <ele>67.3</ele>
        <time>2013-05-26T09:53:06Z</time>
      </trkpt>
      <trkpt lat="49.70806" lon="2.16614">
        <ele>66</ele>
        <time>2013-05-26T09:53:21Z</time>
      </trkpt>
      <trkpt lat="49.70792" lon="2.16607">
        <ele>65</ele>
        <time>2013-05-26T09:53:32Z</time>
      </trkpt>
      <trkpt lat="49.7078" lon="2.16592">
        <ele>64.3</ele>
        <time>2013-05-26T09:53:40Z</time>
      </trkpt>
      <trkpt lat="49.70769" lon="2.16575">
        <ele>64.7</ele>
        <time>2013-05-26T09:53:47Z</time>
      </trkpt>
      <trkpt lat="49.7076" lon="2.1656">
        <ele>66.1</ele>
        <time>2013-05-26T09:53:55Z</time>
      </trkpt>
      <trkpt lat="49.70748" lon="2.1655">
        <ele>68</ele>
        <time>2013-05-26T09:54:05Z</time>
      </trkpt>
      <trkpt lat="49.70733" lon="2.1655">
        <ele>69.6</ele>
        <time>2013-05-26T09:54:13Z</time>
      </trkpt>
      <trkpt lat="49.70721" lon="2.16539">
        <ele>69.1</ele>
        <time>2013-05-26T09:54:21Z</time>
      </trkpt>
      <trkpt lat="49.70708" lon="2.1653">
        <ele>67.1</ele>
        <time>2013-05-26T09:54:35Z</time>
      </trkpt>
      <trkpt lat="49.70698" lon="2.16515">
        <ele>66.7</ele>
        <time>2013-05-26T09:54:47Z</time>
      </trkpt>
      <trkpt lat="49.70685" lon="2.16517">
        <ele>68.5</ele>
        <time>2013-05-26T09:54:57Z</time>
      </trkpt>
      <trkpt lat="49.70674" lon="2.16532">
        <ele>67.4</ele>
        <time>2013-05-26T09:55:07Z</time>
      </trkpt>
      <trkpt lat="49.70646" lon="2.16527">
        <ele>64.6</ele>
        <time>2013-05-26T09:55:23Z</time>
      </trkpt>
      <trkpt lat="49.70646" lon="2.16527">
        <ele>64.6</ele>
        <time>2013-05-26T09:56:59Z</time>
      </trkpt>
      <trkpt lat="49.70633" lon="2.16522">
        <ele>64.9</ele>
        <time>2013-05-26T09:57:08Z</time>
      </trkpt>
      <trkpt lat="49.70618" lon="2.16521">
        <ele>65.7</ele>
        <time>2013-05-26T09:57:17Z</time>
      </trkpt>
      <trkpt lat="49.70604" lon="2.16513">
        <ele>65.2</ele>
        <time>2013-05-26T09:57:27Z</time>
      </trkpt>
      <trkpt lat="49.70592" lon="2.16504">
        <ele>64</ele>
        <time>2013-05-26T09:57:38Z</time>
      </trkpt>
      <trkpt lat="49.70578" lon="2.16502">
        <ele>64.7</ele>
        <time>2013-05-26T09:57:50Z</time>
      </trkpt>
      <trkpt lat="49.70571" lon="2.16483">
        <ele>68.9</ele>
        <time>2013-05-26T09:58:02Z</time>
      </trkpt>
      <trkpt lat="49.70569" lon="2.16475">
        <ele>71</ele>
        <time>2013-05-26T09:58:07Z</time>
      </trkpt>
      <trkpt lat="49.70555" lon="2.1648">
        <ele>76.9</ele>
        <time>2013-05-26T09:58:18Z</time>
      </trkpt>
      <trkpt lat="49.70548" lon="2.16475">
        <ele>79.5</ele>
        <time>2013-05-26T09:58:28Z</time>
      </trkpt>
      <trkpt lat="49.70539" lon="2.16458">
        <ele>80.1</ele>
        <time>2013-05-26T09:58:34Z</time>
      </trkpt>
      <trkpt lat="49.70529" lon="2.16444">
        <ele>81</ele>
        <time>2013-05-26T09:58:44Z</time>
      </trkpt>
      <trkpt lat="49.70519" lon="2.16434">
        <ele>83.7</ele>
        <time>2013-05-26T09:58:50Z</time>
      </trkpt>
      <trkpt lat="49.70511" lon="2.16417">
        <ele>85.4</ele>
        <time>2013-05-26T09:59:01Z</time>
      </trkpt>
      <trkpt lat="49.70499" lon="2.16403">
        <ele>85.7</ele>
        <time>2013-05-26T09:59:12Z</time>
      </trkpt>
      <trkpt lat="49.70485" lon="2.1639">
        <ele>82.9</ele>
        <time>2013-05-26T09:59:21Z</time>
      </trkpt>
      <trkpt lat="49.70472" lon="2.16386">
        <ele>80.7</ele>
        <time>2013-05-26T09:59:31Z</time>
      </trkpt>
      <trkpt lat="49.70464" lon="2.16368">
        <ele>79.3</ele>
        <time>2013-05-26T09:59:41Z</time>
      </trkpt>
      <trkpt lat="49.70456" lon="2.16349">
        <ele>78.2</ele>
        <time>2013-05-26T09:59:53Z</time>
      </trkpt>
      <trkpt lat="49.70452" lon="2.16329">
        <ele>73.1</ele>
        <time>2013-05-26T10:00:04Z</time>
      </trkpt>
      <trkpt lat="49.70441" lon="2.16315">
        <ele>74.5</ele>
        <time>2013-05-26T10:00:20Z</time>
      </trkpt>
      <trkpt lat="49.70435" lon="2.16294">
        <ele>74.2</ele>
        <time>2013-05-26T10:00:28Z</time>
      </trkpt>
      <trkpt lat="49.70422" lon="2.16285">
        <ele>72.3</ele>
        <time>2013-05-26T10:00:39Z</time>
      </trkpt>
      <trkpt lat="49.70412" lon="2.16269">
        <ele>69.6</ele>
        <time>2013-05-26T10:00:53Z</time>
      </trkpt>
      <trkpt lat="49.70397" lon="2.16264">
        <ele>68.8</ele>
        <time>2013-05-26T10:01:06Z</time>
      </trkpt>
      <trkpt lat="49.70387" lon="2.16251">
        <ele>66.3</ele>
        <time>2013-05-26T10:01:17Z</time>
      </trkpt>
      <trkpt lat="49.70373" lon="2.16252">
        <ele>66.8</ele>
        <time>2013-05-26T10:01:34Z</time>
      </trkpt>
      <trkpt lat="49.70359" lon="2.16262">
        <ele>66.5</ele>
        <time>2013-05-26T10:01:41Z</time>
      </trkpt>
      <trkpt lat="49.70346" lon="2.16259">
        <ele>66.1</ele>
        <time>2013-05-26T10:01:50Z</time>
      </trkpt>
      <trkpt lat="49.70331" lon="2.16267">
        <ele>65.7</ele>
        <time>2013-05-26T10:01:59Z</time>
      </trkpt>
      <trkpt lat="49.70318" lon="2.16269">
        <ele>65.1</ele>
        <time>2013-05-26T10:02:12Z</time>
      </trkpt>
      <trkpt lat="49.70304" lon="2.16263">
        <ele>64.5</ele>
        <time>2013-05-26T10:02:25Z</time>
      </trkpt>
      <trkpt lat="49.70289" lon="2.16268">
        <ele>64</ele>
        <time>2013-05-26T10:02:37Z</time>
      </trkpt>
      <trkpt lat="49.70277" lon="2.1628">
        <ele>67</ele>
        <time>2013-05-26T10:02:48Z</time>
      </trkpt>
      <trkpt lat="49.70264" lon="2.16286">
        <ele>61</ele>
        <time>2013-05-26T10:02:58Z</time>
      </trkpt>
      <trkpt lat="49.70249" lon="2.16284">
        <ele>62.5</ele>
        <time>2013-05-26T10:03:09Z</time>
      </trkpt>
      <trkpt lat="49.70234" lon="2.16278">
        <ele>64.4</ele>
        <time>2013-05-26T10:03:22Z</time>
      </trkpt>
      <trkpt lat="49.7022" lon="2.16278">
        <ele>65.2</ele>
        <time>2013-05-26T10:03:30Z</time>
      </trkpt>
      <trkpt lat="49.70206" lon="2.16278">
        <ele>65.7</ele>
        <time>2013-05-26T10:03:42Z</time>
      </trkpt>
      <trkpt lat="49.70192" lon="2.1628">
        <ele>66.2</ele>
        <time>2013-05-26T10:03:52Z</time>
      </trkpt>
      <trkpt lat="49.70178" lon="2.16288">
        <ele>66.7</ele>
        <time>2013-05-26T10:04:02Z</time>
      </trkpt>
      <trkpt lat="49.70165" lon="2.16296">
        <ele>67.4</ele>
        <time>2013-05-26T10:04:17Z</time>
      </trkpt>
      <trkpt lat="49.70152" lon="2.16305">
        <ele>67.7</ele>
        <time>2013-05-26T10:04:23Z</time>
      </trkpt>
      <trkpt lat="49.70139" lon="2.16311">
        <ele>68.3</ele>
        <time>2013-05-26T10:04:36Z</time>
      </trkpt>
      <trkpt lat="49.70127" lon="2.16323">
        <ele>68.9</ele>
        <time>2013-05-26T10:04:48Z</time>
      </trkpt>
      <trkpt lat="49.70114" lon="2.1633">
        <ele>70.9</ele>
        <time>2013-05-26T10:04:57Z</time>
      </trkpt>
      <trkpt lat="49.70101" lon="2.16337">
        <ele>73.6</ele>
        <time>2013-05-26T10:05:10Z</time>
      </trkpt>
      <trkpt lat="49.70087" lon="2.16344">
        <ele>73.3</ele>
        <time>2013-05-26T10:05:22Z</time>
      </trkpt>
      <trkpt lat="49.70075" lon="2.16354">
        <ele>72.4</ele>
        <time>2013-05-26T10:05:34Z</time>
      </trkpt>
      <trkpt lat="49.70061" lon="2.16363">
        <ele>71.7</ele>
        <time>2013-05-26T10:05:43Z</time>
      </trkpt>
      <trkpt lat="49.70049" lon="2.16372">
        <ele>70.8</ele>
        <time>2013-05-26T10:05:53Z</time>
      </trkpt>
      <trkpt lat="49.70038" lon="2.16386">
        <ele>69.7</ele>
        <time>2013-05-26T10:06:06Z</time>
      </trkpt>
      <trkpt lat="49.70025" lon="2.16394">
        <ele>68.9</ele>
        <time>2013-05-26T10:06:16Z</time>
      </trkpt>
      <trkpt lat="49.70012" lon="2.164">
        <ele>68.5</ele>
        <time>2013-05-26T10:06:26Z</time>
      </trkpt>
      <trkpt lat="49.70001" lon="2.16414">
        <ele>68</ele>
        <time>2013-05-26T10:06:36Z</time>
      </trkpt>
      <trkpt lat="49.69989" lon="2.16428">
        <ele>69.4</ele>
        <time>2013-05-26T10:06:48Z</time>
      </trkpt>
      <trkpt lat="49.69976" lon="2.16436">
        <ele>71</ele>
        <time>2013-05-26T10:06:58Z</time>
      </trkpt>
      <trkpt lat="49.69964" lon="2.16446">
        <ele>68.5</ele>
        <time>2013-05-26T10:07:11Z</time>
      </trkpt>
      <trkpt lat="49.6995" lon="2.16452">
        <ele>70.5</ele>
        <time>2013-05-26T10:07:24Z</time>
      </trkpt>
      <trkpt lat="49.69935" lon="2.16453">
        <ele>72.1</ele>
        <time>2013-05-26T10:07:30Z</time>
      </trkpt>
      <trkpt lat="49.69921" lon="2.16449">
        <ele>73.3</ele>
        <time>2013-05-26T10:07:35Z</time>
      </trkpt>
      <trkpt lat="49.69913" lon="2.16467">
        <ele>75.8</ele>
        <time>2013-05-26T10:07:47Z</time>
      </trkpt>
      <trkpt lat="49.69904" lon="2.16484">
        <ele>77.3</ele>
        <time>2013-05-26T10:07:58Z</time>
      </trkpt>
      <trkpt lat="49.69892" lon="2.16493">
        <ele>78.4</ele>
        <time>2013-05-26T10:08:08Z</time>
      </trkpt>
      <trkpt lat="49.6988" lon="2.16505">
        <ele>79.8</ele>
        <time>2013-05-26T10:08:21Z</time>
      </trkpt>
      <trkpt lat="49.69866" lon="2.16512">
        <ele>80.9</ele>
        <time>2013-05-26T10:08:31Z</time>
      </trkpt>
      <trkpt lat="49.69854" lon="2.16524">
        <ele>78.5</ele>
        <time>2013-05-26T10:08:42Z</time>
      </trkpt>
      <trkpt lat="49.69846" lon="2.16541">
        <ele>76.1</ele>
        <time>2013-05-26T10:08:54Z</time>
      </trkpt>
      <trkpt lat="49.69833" lon="2.1655">
        <ele>74.2</ele>
        <time>2013-05-26T10:09:04Z</time>
      </trkpt>
      <trkpt lat="49.69823" lon="2.16565">
        <ele>73.7</ele>
        <time>2013-05-26T10:09:13Z</time>
      </trkpt>
      <trkpt lat="49.69812" lon="2.16579">
        <ele>73.3</ele>
        <time>2013-05-26T10:09:23Z</time>
      </trkpt>
      <trkpt lat="49.69802" lon="2.16597">
        <ele>71.9</ele>
        <time>2013-05-26T10:09:36Z</time>
      </trkpt>
      <trkpt lat="49.69793" lon="2.16614">
        <ele>68.8</ele>
        <time>2013-05-26T10:09:45Z</time>
      </trkpt>
      <trkpt lat="49.69783" lon="2.16628">
        <ele>68.2</ele>
        <time>2013-05-26T10:09:54Z</time>
      </trkpt>
      <trkpt lat="49.69772" lon="2.16643">
        <ele>69.6</ele>
        <time>2013-05-26T10:10:06Z</time>
      </trkpt>
      <trkpt lat="49.69759" lon="2.16649">
        <ele>68</ele>
        <time>2013-05-26T10:10:18Z</time>
      </trkpt>
      <trkpt lat="49.69745" lon="2.16656">
        <ele>68.4</ele>
        <time>2013-05-26T10:10:30Z</time>
      </trkpt>
      <trkpt lat="49.69733" lon="2.16668">
        <ele>69</ele>
        <time>2013-05-26T10:10:41Z</time>
      </trkpt>
      <trkpt lat="49.6972" lon="2.16679">
        <ele>69.5</ele>
        <time>2013-05-26T10:10:50Z</time>
      </trkpt>
      <trkpt lat="49.69709" lon="2.16691">
        <ele>70</ele>
        <time>2013-05-26T10:11:01Z</time>
      </trkpt>
      <trkpt lat="49.69697" lon="2.16702">
        <ele>70.6</ele>
        <time>2013-05-26T10:11:13Z</time>
      </trkpt>
      <trkpt lat="49.69684" lon="2.16708">
        <ele>70.8</ele>
        <time>2013-05-26T10:11:22Z</time>
      </trkpt>
      <trkpt lat="49.69672" lon="2.16718">
        <ele>69</ele>
        <time>2013-05-26T10:11:34Z</time>
      </trkpt>
      <trkpt lat="49.69677" lon="2.16739">
        <ele>67.4</ele>
        <time>2013-05-26T10:11:45Z</time>
      </trkpt>
      <trkpt lat="49.6969" lon="2.16743">
        <ele>65.8</ele>
        <time>2013-05-26T10:11:54Z</time>
      </trkpt>
      <trkpt lat="49.69704" lon="2.16748">
        <ele>64.7</ele>
        <time>2013-05-26T10:12:02Z</time>
      </trkpt>
      <trkpt lat="49.69717" lon="2.16744">
        <ele>63.3</ele>
        <time>2013-05-26T10:12:16Z</time>
      </trkpt>
      <trkpt lat="49.69732" lon="2.16742">
        <ele>62</ele>
        <time>2013-05-26T10:12:28Z</time>
      </trkpt>
      <trkpt lat="49.69746" lon="2.1674">
        <ele>57</ele>
        <time>2013-05-26T10:12:40Z</time>
      </trkpt>
      <trkpt lat="49.6976" lon="2.16735">
        <ele>58.8</ele>
        <time>2013-05-26T10:12:53Z</time>
      </trkpt>
      <trkpt lat="49.69772" lon="2.16747">
        <ele>60.5</ele>
        <time>2013-05-26T10:13:05Z</time>
      </trkpt>
      <trkpt lat="49.69773" lon="2.16758">
        <ele>61.3</ele>
        <time>2013-05-26T10:13:12Z</time>
      </trkpt>
      <trkpt lat="49.69785" lon="2.16769">
        <ele>63.2</ele>
        <time>2013-05-26T10:13:26Z</time>
      </trkpt>
      <trkpt lat="49.69798" lon="2.16776">
        <ele>64.4</ele>
        <time>2013-05-26T10:13:36Z</time>
      </trkpt>
      <trkpt lat="49.69807" lon="2.16791">
        <ele>65.9</ele>
        <time>2013-05-26T10:13:47Z</time>
      </trkpt>
      <trkpt lat="49.69811" lon="2.16811">
        <ele>66.8</ele>
        <time>2013-05-26T10:13:58Z</time>
      </trkpt>
      <trkpt lat="49.69816" lon="2.16818">
        <ele>67.2</ele>
        <time>2013-05-26T10:14:02Z</time>
      </trkpt>
      <trkpt lat="49.69828" lon="2.16809">
        <ele>67.6</ele>
        <time>2013-05-26T10:14:12Z</time>
      </trkpt>
      <trkpt lat="49.69841" lon="2.1681">
        <ele>61.7</ele>
        <time>2013-05-26T10:14:26Z</time>
      </trkpt>
    </trkseg>
  </trk>
</gpx>